Observation data for Lesley on 03/09/2018      Previous  Date  Next       Current Mesonet Observations  Soil Data  Daily Summary Page  Observations in Plain Language
KLE1 090600Z 11003KT 12/M06 A2986 RMK A01 T01231058  RH  028%=      5-min Rain = 0
KLE1 090601Z 14003KT 12/M06 A2986 RMK A01 T01231057  RH  028%=      5-min Rain = 0
KLE1 090602Z 14004KT 12/M06 A2986 RMK A01 T01211057  RH  028%=      5-min Rain = 0
KLE1 090603Z 12003KT 12/M06 A2986 RMK A01 T01221055  RH  029%=      5-min Rain = 0
KLE1 090604Z 14002KT 12/M06 A2986 RMK A01 T01231055  RH  028%=      5-min Rain = 0
KLE1 090605Z 14002KT 12/M06 A2986 RMK A01 T01221056  RH  028%=      5-min Rain = 0
KLE1 090606Z 12003KT 12/M06 A2986 RMK A01 T01211057  RH  028%=      5-min Rain = 0
KLE1 090607Z 15004KT 12/M06 A2986 RMK A01 T01211056  RH  029%=      5-min Rain = 0
KLE1 090608Z 17005KT 12/M06 A2986 RMK A01 T01211056  RH  029%=      5-min Rain = 0
KLE1 090609Z 15003KT 12/M05 A2986 RMK A01 T01231054  RH  029%=      5-min Rain = 0
KLE1 090610Z 13003KT 13/M05 A2986 RMK A01 T01251054  RH  028%=      5-min Rain = 0
KLE1 090614Z 10001KT 12/M06 A2985 RMK A01 T01221056  RH  028%=      5-min Rain = 0
KLE1 090615Z 10002KT 12/M06 A2985 RMK A01 T01211057  RH  028%=      5-min Rain = 0
KLE1 090616Z 10002KT 12/M06 A2985 RMK A01 T01211057  RH  028%=      5-min Rain = 0
KLE1 090617Z 11002KT 12/M06 A2985 RMK A01 T01211057  RH  028%=      5-min Rain = 0
KLE1 090618Z 12002KT 12/M06 A2985 RMK A01 T01221055  RH  028%=      5-min Rain = 0
KLE1 090619Z 09001KT 12/M06 A2985 RMK A01 T01231056  RH  028%=      5-min Rain = 0
KLE1 090620Z 09001KT 12/M06 A2985 RMK A01 T01241057  RH  028%=      5-min Rain = 0
KLE1 090621Z 11002KT 12/M06 A2985 RMK A01 T01241056  RH  028%=      5-min Rain = 0
KLE1 090622Z 16001KT 12/M06 A2985 RMK A01 T01241056  RH  028%=      5-min Rain = 0
KLE1 090623Z 17002KT 13/M06 A2985 RMK A01 T01251055  RH  028%=      5-min Rain = 0
KLE1 090624Z 16002KT 13/M06 A2985 RMK A01 T01251055  RH  028%=      5-min Rain = 0
KLE1 090625Z 19003KT 13/M05 A2985 RMK A01 T01251054  RH  028%=      5-min Rain = 0
KLE1 090626Z 15001KT 13/M05 A2985 RMK A01 T01271054  RH  028%=      5-min Rain = 0
KLE1 090627Z 17002KT 13/M06 A2985 RMK A01 T01271055  RH  028%=      5-min Rain = 0
KLE1 090628Z 19002KT 13/M05 A2985 RMK A01 T01271054  RH  028%=      5-min Rain = 0
KLE1 090629Z 19002KT 13/M05 A2985 RMK A01 T01261053  RH  028%=      5-min Rain = 0
KLE1 090630Z 19003KT 13/M05 A2985 RMK A01 T01261054  RH  028%=      5-min Rain = 0
KLE1 090631Z 21003KT 13/M05 A2985 RMK A01 T01251053  RH  028%=      5-min Rain = 0
KLE1 090632Z 22003KT 13/M05 A2985 RMK A01 T01251053  RH  029%=      5-min Rain = 0
KLE1 090633Z 22002KT 12/M05 A2985 RMK A01 T01241053  RH  029%=      5-min Rain = 0
KLE1 090634Z 20002KT 12/M05 A2985 RMK A01 T01241052  RH  029%=      5-min Rain = 0
KLE1 090635Z 22002KT 12/M05 A2985 RMK A01 T01241053  RH  029%=      5-min Rain = 0
KLE1 090636Z 19003KT 12/M05 A2985 RMK A01 T01241053  RH  029%=      5-min Rain = 0
KLE1 090637Z 20002KT 13/M05 A2985 RMK A01 T01261051  RH  029%=      5-min Rain = 0
KLE1 090638Z 21001KT 13/M05 A2985 RMK A01 T01261052  RH  028%=      5-min Rain = 0
KLE1 090639Z 22001KT 13/M05 A2985 RMK A01 T01261052  RH  028%=      5-min Rain = 0
KLE1 090640Z 23001KT 13/M05 A2985 RMK A01 T01251053  RH  028%=      5-min Rain = 0
KLE1 090641Z 24001KT 12/M05 A2985 RMK A01 T01241053  RH  029%=      5-min Rain = 0
KLE1 090642Z 22001KT 12/M05 A2985 RMK A01 T01231053  RH  029%=      5-min Rain = 0
KLE1 090643Z 36000KT 12/M05 A2985 RMK A01 T01231052  RH  029%=      5-min Rain = 0
KLE1 090644Z 24000KT 12/M05 A2985 RMK A01 T01231052  RH  029%=      5-min Rain = 0
KLE1 090645Z 22004KT 12/M05 A2985 RMK A01 T01241050  RH  029%=      5-min Rain = 0
KLE1 090646Z 22004KT 12/M05 A2985 RMK A01 T01241047  RH  030%=      5-min Rain = 0
KLE1 090647Z 23004KT 12/M05 A2985 RMK A01 T01241047  RH  030%=      5-min Rain = 0
KLE1 090648Z 20003KT 12/M05 A2985 RMK A01 T01211047  RH  030%=      5-min Rain = 0
KLE1 090649Z 21003KT 12/M05 A2985 RMK A01 T01191048  RH  031%=      5-min Rain = 0
KLE1 090650Z 25004G9KT 12/M05 A2985 RMK A01 T01191048  RH  031%=      5-min Rain = 0
KLE1 090651Z 22006KT 12/M05 A2985 RMK A01 T01201046  RH  031%=      5-min Rain = 0
KLE1 090652Z 23005KT 12/M04 A2985 RMK A01 T01241044  RH  031%=      5-min Rain = 0
KLE1 090653Z 22004KT 12/M05 A2985 RMK A01 T01241045  RH  030%=      5-min Rain = 0
KLE1 090654Z 23003KT 13/M05 A2985 RMK A01 T01251046  RH  030%=      5-min Rain = 0
KLE1 090655Z 21004KT 13/M05 A2985 RMK A01 T01251046  RH  030%=      5-min Rain = 0
KLE1 090656Z 21004KT 13/M05 A2985 RMK A01 T01251045  RH  030%=      5-min Rain = 0
KLE1 090657Z 23003KT 12/M05 A2985 RMK A01 T01241045  RH  030%=      5-min Rain = 0
KLE1 090658Z 22005KT 12/M05 A2985 RMK A01 T01231045  RH  031%=      5-min Rain = 0
KLE1 090659Z 21004KT 12/M04 A2985 RMK A01 T01231044  RH  031%=      5-min Rain = 0
KLE1 090700Z 21005KT 12/M04 A2985 RMK A01 T01221043  RH  031%=      5-min Rain = 0
KLE1 090701Z 21004KT 12/M04 A2985 RMK A01 T01221044  RH  031%=      5-min Rain = 0
KLE1 090702Z 21007KT 12/M04 A2985 RMK A01 T01211044  RH  031%=      5-min Rain = 0
KLE1 090703Z 23004KT 12/M04 A2985 RMK A01 T01221043  RH  032%=      5-min Rain = 0
KLE1 090704Z 22004KT 12/M04 A2985 RMK A01 T01221043  RH  031%=      5-min Rain = 0
KLE1 090705Z 23004KT 12/M04 A2985 RMK A01 T01221044  RH  031%=      5-min Rain = 0
KLE1 090706Z 23003KT 12/M04 A2985 RMK A01 T01221044  RH  031%=      5-min Rain = 0
KLE1 090707Z 23004KT 12/M04 A2985 RMK A01 T01211044  RH  031%=      5-min Rain = 0
KLE1 090708Z 22005KT 12/M04 A2985 RMK A01 T01211043  RH  031%=      5-min Rain = 0
KLE1 090709Z 23005KT 12/M04 A2985 RMK A01 T01231042  RH  031%=      5-min Rain = 0
KLE1 090710Z 23005KT 12/M04 A2985 RMK A01 T01231042  RH  031%=      5-min Rain = 0
KLE1 090711Z 23005KT 12/M04 A2985 RMK A01 T01211043  RH  032%=      5-min Rain = 0
KLE1 090712Z 22005KT 12/M04 A2985 RMK A01 T01191042  RH  032%=      5-min Rain = 0
KLE1 090713Z 22005KT 12/M04 A2985 RMK A01 T01181042  RH  033%=      5-min Rain = 0
KLE1 090714Z 22005KT 12/M04 A2985 RMK A01 T01171041  RH  033%=      5-min Rain = 0
KLE1 090715Z 22006KT 12/M04 A2985 RMK A01 T01171040  RH  033%=      5-min Rain = 0
KLE1 090716Z 21007KT 12/M04 A2985 RMK A01 T01181039  RH  033%=      5-min Rain = 0
KLE1 090717Z 21005KT 12/M04 A2985 RMK A01 T01191038  RH  033%=      5-min Rain = 0
KLE1 090718Z 21006KT 12/M04 A2985 RMK A01 T01191037  RH  033%=      5-min Rain = 0
KLE1 090719Z 22007KT 12/M04 A2985 RMK A01 T01181038  RH  033%=      5-min Rain = 0
KLE1 090720Z 22005KT 12/M04 A2985 RMK A01 T01181037  RH  033%=      5-min Rain = 0
KLE1 090721Z 22005KT 12/M04 A2985 RMK A01 T01191037  RH  033%=      5-min Rain = 0
KLE1 090722Z 22006KT 12/M04 A2985 RMK A01 T01191037  RH  033%=      5-min Rain = 0
KLE1 090723Z 21005KT 12/M04 A2985 RMK A01 T01191038  RH  033%=      5-min Rain = 0
KLE1 090724Z 21005KT 12/M04 A2985 RMK A01 T01191037  RH  033%=      5-min Rain = 0
KLE1 090725Z 21004KT 12/M04 A2985 RMK A01 T01201037  RH  033%=      5-min Rain = 0
KLE1 090726Z 21004KT 12/M04 A2985 RMK A01 T01211037  RH  033%=      5-min Rain = 0
KLE1 090727Z 21004KT 12/M04 A2985 RMK A01 T01221037  RH  033%=      5-min Rain = 0
KLE1 090728Z 21003KT 12/M04 A2985 RMK A01 T01231037  RH  033%=      5-min Rain = 0
KLE1 090729Z 22003KT 13/M04 A2984 RMK A01 T01251036  RH  032%=      5-min Rain = 0
KLE1 090730Z 22002KT 13/M04 A2984 RMK A01 T01261037  RH  032%=      5-min Rain = 0
KLE1 090731Z 21002KT 13/M04 A2984 RMK A01 T01251037  RH  032%=      5-min Rain = 0
KLE1 090732Z 21003KT 13/M04 A2984 RMK A01 T01261037  RH  032%=      5-min Rain = 0
KLE1 090733Z 21003KT 13/M04 A2984 RMK A01 T01271036  RH  032%=      5-min Rain = 0
KLE1 090734Z 20002KT 13/M04 A2984 RMK A01 T01271035  RH  032%=      5-min Rain = 0
KLE1 090735Z 22002KT 13/M04 A2984 RMK A01 T01271035  RH  032%=      5-min Rain = 0
KLE1 090736Z 22001KT 13/M04 A2984 RMK A01 T01271035  RH  032%=      5-min Rain = 0
KLE1 090737Z 25001KT 13/M04 A2984 RMK A01 T01271035  RH  032%=      5-min Rain = 0
KLE1 090738Z 23001KT 13/M04 A2984 RMK A01 T01271035  RH  032%=      5-min Rain = 0
KLE1 090739Z 25001KT 13/M04 A2984 RMK A01 T01271035  RH  032%=      5-min Rain = 0
KLE1 090740Z 24001KT 13/M04 A2984 RMK A01 T01271036  RH  032%=      5-min Rain = 0
KLE1 090741Z 22003KT 13/M04 A2984 RMK A01 T01261036  RH  032%=      5-min Rain = 0
KLE1 090742Z 22003KT 13/M03 A2984 RMK A01 T01271034  RH  032%=      5-min Rain = 0
KLE1 090743Z 23003KT 13/M03 A2984 RMK A01 T01271033  RH  033%=      5-min Rain = 0
KLE1 090744Z 22005KT 13/M03 A2984 RMK A01 T01261033  RH  033%=      5-min Rain = 0
KLE1 090745Z 22005KT 13/M03 A2984 RMK A01 T01251032  RH  033%=      5-min Rain = 0
KLE1 090746Z 23005KT 12/M03 A2984 RMK A01 T01221032  RH  034%=      5-min Rain = 0
KLE1 090747Z 23006KT 12/M03 A2984 RMK A01 T01201032  RH  035%=      5-min Rain = 0
KLE1 090748Z 24008KT 12/M03 A2984 RMK A01 T01201030  RH  035%=      5-min Rain = 0
KLE1 090749Z 23008KT 12/M03 A2984 RMK A01 T01201028  RH  035%=      5-min Rain = 0
KLE1 090750Z 23010KT 12/M03 A2984 RMK A01 T01201027  RH  036%=      5-min Rain = 0
KLE1 090751Z 23009KT 12/M03 A2984 RMK A01 T01211026  RH  036%=      5-min Rain = 0
KLE1 090752Z 23009KT 12/M02 A2984 RMK A01 T01221024  RH  036%=      5-min Rain = 0
KLE1 090753Z 23011KT 12/M02 A2984 RMK A01 T01221024  RH  036%=      5-min Rain = 0
KLE1 090754Z 23010KT 13/M02 A2984 RMK A01 T01251021  RH  036%=      5-min Rain = 0
KLE1 090755Z 22011KT 13/M02 A2984 RMK A01 T01271023  RH  035%=      5-min Rain = 0
KLE1 090756Z 23009KT 13/M02 A2984 RMK A01 T01281023  RH  035%=      5-min Rain = 0
KLE1 090757Z 24009KT 13/M02 A2984 RMK A01 T01271024  RH  035%=      5-min Rain = 0
KLE1 090758Z 23009KT 13/M02 A2984 RMK A01 T01271024  RH  035%=      5-min Rain = 0
KLE1 090759Z 23009KT 13/M02 A2984 RMK A01 T01261024  RH  035%=      5-min Rain = 0
KLE1 090800Z 23008KT 13/M02 A2984 RMK A01 T01261023  RH  035%=      5-min Rain = 0
KLE1 090801Z 23008KT 13/M02 A2984 RMK A01 T01261023  RH  035%=      5-min Rain = 0
KLE1 090802Z 24010KT 13/M02 A2984 RMK A01 T01251024  RH  036%=      5-min Rain = 0
KLE1 090803Z 24008KT 13/M02 A2984 RMK A01 T01251022  RH  036%=      5-min Rain = 0
KLE1 090804Z 24008KT 13/M02 A2984 RMK A01 T01261022  RH  036%=      5-min Rain = 0
KLE1 090805Z 23007KT 13/M02 A2984 RMK A01 T01261023  RH  036%=      5-min Rain = 0
KLE1 090806Z 24006KT 12/M02 A2984 RMK A01 T01231024  RH  036%=      5-min Rain = 0
KLE1 090807Z 24007KT 12/M03 A2984 RMK A01 T01211025  RH  036%=      5-min Rain = 0
KLE1 090808Z 23008KT 12/M02 A2984 RMK A01 T01211023  RH  037%=      5-min Rain = 0
KLE1 090809Z 24007KT 12/M02 A2984 RMK A01 T01231021  RH  037%=      5-min Rain = 0
KLE1 090810Z 23007KT 12/M02 A2984 RMK A01 T01231022  RH  036%=      5-min Rain = 0
KLE1 090811Z 24006KT 12/M02 A2984 RMK A01 T01221023  RH  037%=      5-min Rain = 0
KLE1 090812Z 24005KT 12/M02 A2984 RMK A01 T01201023  RH  037%=      5-min Rain = 0
KLE1 090813Z 24006KT 12/M02 A2983 RMK A01 T01201022  RH  037%=      5-min Rain = 0
KLE1 090814Z 25008KT 12/M02 A2983 RMK A01 T01201022  RH  037%=      5-min Rain = 0
KLE1 090815Z 25008KT 12/M02 A2983 RMK A01 T01221018  RH  038%=      5-min Rain = 0
KLE1 090816Z 24010KT 12/M02 A2983 RMK A01 T01241017  RH  037%=      5-min Rain = 0
KLE1 090817Z 24010KT 13/M02 A2983 RMK A01 T01261016  RH  037%=      5-min Rain = 0
KLE1 090818Z 24008KT 13/M02 A2983 RMK A01 T01291015  RH  037%=      5-min Rain = 0
KLE1 090819Z 24008KT 13/M02 A2983 RMK A01 T01291016  RH  037%=      5-min Rain = 0
KLE1 090820Z 24008KT 13/M02 A2983 RMK A01 T01281017  RH  037%=      5-min Rain = 0
KLE1 090821Z 24007KT 13/M02 A2983 RMK A01 T01261017  RH  037%=      5-min Rain = 0
KLE1 090822Z 24007KT 12/M02 A2983 RMK A01 T01241017  RH  037%=      5-min Rain = 0
KLE1 090823Z 24007KT 12/M02 A2983 RMK A01 T01231018  RH  037%=      5-min Rain = 0
KLE1 090824Z 24007KT 12/M02 A2983 RMK A01 T01231017  RH  038%=      5-min Rain = 0
KLE1 090825Z 24008KT 12/M02 A2983 RMK A01 T01231017  RH  038%=      5-min Rain = 0
KLE1 090826Z 24009KT 12/M02 A2983 RMK A01 T01241016  RH  038%=      5-min Rain = 0
KLE1 090827Z 23011KT 12/M02 A2983 RMK A01 T01241015  RH  038%=      5-min Rain = 0
KLE1 090828Z 23009KT 13/M01 A2983 RMK A01 T01251013  RH  038%=      5-min Rain = 0
KLE1 090829Z 23011KT 13/M01 A2983 RMK A01 T01261014  RH  038%=      5-min Rain = 0
KLE1 090830Z 23011KT 13/M01 A2983 RMK A01 T01261013  RH  038%=      5-min Rain = 0
KLE1 090831Z 23014KT 13/M01 A2983 RMK A01 T01271013  RH  038%=      5-min Rain = 0
KLE1 090832Z 23016KT 13/M01 A2982 RMK A01 T01301011  RH  038%=      5-min Rain = 0
KLE1 090833Z 23013KT 13/M01 A2982 RMK A01 T01341010  RH  037%=      5-min Rain = 0
KLE1 090834Z 22012KT 14/M01 A2982 RMK A01 T01351012  RH  036%=      5-min Rain = 0
KLE1 090835Z 22012KT 13/M01 A2982 RMK A01 T01341012  RH  036%=      5-min Rain = 0
KLE1 090836Z 23011KT 13/M01 A2982 RMK A01 T01321012  RH  037%=      5-min Rain = 0
KLE1 090837Z 22012KT 13/M01 A2982 RMK A01 T01321012  RH  037%=      5-min Rain = 0
KLE1 090838Z 23012KT 13/M01 A2982 RMK A01 T01321012  RH  037%=      5-min Rain = 0
KLE1 090839Z 22014KT 13/M01 A2983 RMK A01 T01331011  RH  037%=      5-min Rain = 0
KLE1 090840Z 23014KT 13/M01 A2983 RMK A01 T01341011  RH  037%=      5-min Rain = 0
KLE1 090841Z 23012KT 14/M01 A2983 RMK A01 T01361011  RH  036%=      5-min Rain = 0
KLE1 090842Z 23011KT 14/M01 A2983 RMK A01 T01361011  RH  036%=      5-min Rain = 0
KLE1 090843Z 23009KT 14/M01 A2983 RMK A01 T01361011  RH  036%=      5-min Rain = 0
KLE1 090844Z 23009KT 14/M01 A2982 RMK A01 T01361011  RH  036%=      5-min Rain = 0
KLE1 090845Z 24012KT 13/M01 A2982 RMK A01 T01341012  RH  036%=      5-min Rain = 0
KLE1 090846Z 24008KT 13/M01 A2982 RMK A01 T01341011  RH  037%=      5-min Rain = 0
KLE1 090847Z 23008KT 13/M01 A2982 RMK A01 T01331012  RH  037%=      5-min Rain = 0
KLE1 090848Z 23007KT 13/M01 A2982 RMK A01 T01321012  RH  037%=      5-min Rain = 0
KLE1 090849Z 22007KT 13/M01 A2982 RMK A01 T01311012  RH  037%=      5-min Rain = 0
KLE1 090850Z 22007KT 13/M01 A2982 RMK A01 T01291012  RH  038%=      5-min Rain = 0
KLE1 090851Z 21007KT 13/M01 A2982 RMK A01 T01291012  RH  038%=      5-min Rain = 0
KLE1 090852Z 21007KT 13/M01 A2982 RMK A01 T01291012  RH  038%=      5-min Rain = 0
KLE1 090853Z 21008KT 13/M01 A2982 RMK A01 T01281012  RH  038%=      5-min Rain = 0
KLE1 090854Z 21008KT 13/M01 A2982 RMK A01 T01281012  RH  038%=      5-min Rain = 0
KLE1 090855Z 21007KT 13/M01 A2982 RMK A01 T01301011  RH  038%=      5-min Rain = 0
KLE1 090856Z 21007KT 13/M01 A2982 RMK A01 T01291011  RH  038%=      5-min Rain = 0
KLE1 090857Z 21007KT 13/M01 A2982 RMK A01 T01291012  RH  038%=      5-min Rain = 0
KLE1 090858Z 20007KT 13/M01 A2982 RMK A01 T01271012  RH  038%=      5-min Rain = 0
KLE1 090859Z 20007KT 13/M01 A2981 RMK A01 T01261013  RH  038%=      5-min Rain = 0
KLE1 090900Z 20007KT 12/M01 A2981 RMK A01 T01241013  RH  039%=      5-min Rain = 0
KLE1 090901Z 21007KT 12/M01 A2981 RMK A01 T01231013  RH  039%=      5-min Rain = 0
KLE1 090902Z 21008KT 12/M01 A2981 RMK A01 T01221013  RH  039%=      5-min Rain = 0
KLE1 090903Z 21008KT 12/M01 A2981 RMK A01 T01211013  RH  039%=      5-min Rain = 0
KLE1 090904Z 21008KT 12/M01 A2981 RMK A01 T01201013  RH  040%=      5-min Rain = 0
KLE1 090905Z 21008KT 12/M01 A2981 RMK A01 T01201012  RH  040%=      5-min Rain = 0
KLE1 090906Z 21009KT 12/M01 A2981 RMK A01 T01201012  RH  040%=      5-min Rain = 0
KLE1 090907Z 21009KT 12/M01 A2981 RMK A01 T01201012  RH  040%=      5-min Rain = 0
KLE1 090908Z 21008KT 12/M01 A2981 RMK A01 T01201012  RH  040%=      5-min Rain = 0
KLE1 090909Z 22007KT 12/M01 A2981 RMK A01 T01211011  RH  040%=      5-min Rain = 0
KLE1 090910Z 22007KT 12/M01 A2981 RMK A01 T01211011  RH  040%=      5-min Rain = 0
KLE1 090911Z 23007KT 12/M01 A2981 RMK A01 T01221011  RH  040%=      5-min Rain = 0
KLE1 090912Z 23006KT 12/M01 A2981 RMK A01 T01231011  RH  040%=      5-min Rain = 0
KLE1 090913Z 23006KT 13/M01 A2981 RMK A01 T01261010  RH  039%=      5-min Rain = 0
KLE1 090914Z 24007KT 13/M01 A2981 RMK A01 T01261011  RH  039%=      5-min Rain = 0
KLE1 090915Z 24006KT 13/M01 A2981 RMK A01 T01261011  RH  039%=      5-min Rain = 0
KLE1 090916Z 24006KT 13/M01 A2981 RMK A01 T01261011  RH  038%=      5-min Rain = 0
KLE1 090917Z 25008KT 13/M01 A2981 RMK A01 T01261011  RH  038%=      5-min Rain = 0
KLE1 090918Z 26007KT 13/M01 A2981 RMK A01 T01291010  RH  038%=      5-min Rain = 0
KLE1 090919Z 26006KT 13/M01 A2981 RMK A01 T01311010  RH  038%=      5-min Rain = 0
KLE1 090920Z 25006KT 13/M01 A2981 RMK A01 T01321011  RH  037%=      5-min Rain = 0
KLE1 090921Z 25005KT 13/M01 A2981 RMK A01 T01301013  RH  037%=      5-min Rain = 0
KLE1 090922Z 26006KT 13/M01 A2981 RMK A01 T01281013  RH  038%=      5-min Rain = 0
KLE1 090923Z 26007KT 13/M01 A2981 RMK A01 T01261013  RH  038%=      5-min Rain = 0
KLE1 090924Z 25006KT 13/M01 A2981 RMK A01 T01251012  RH  039%=      5-min Rain = 0
KLE1 090925Z 26006KT 13/M01 A2981 RMK A01 T01251012  RH  039%=      5-min Rain = 0
KLE1 090926Z 26005KT 12/M01 A2981 RMK A01 T01241012  RH  039%=      5-min Rain = 0
KLE1 090927Z 27005KT 12/M01 A2981 RMK A01 T01221013  RH  039%=      5-min Rain = 0
KLE1 090928Z 28004KT 12/M01 A2981 RMK A01 T01211014  RH  039%=      5-min Rain = 0
KLE1 090929Z 27004KT 12/M02 A2981 RMK A01 T01201016  RH  039%=      5-min Rain = 0
KLE1 090930Z 28004KT 12/M02 A2981 RMK A01 T01181016  RH  039%=      5-min Rain = 0
KLE1 090931Z 26003KT 12/M02 A2981 RMK A01 T01161017  RH  040%=      5-min Rain = 0
KLE1 090932Z 26004KT 12/M02 A2981 RMK A01 T01151017  RH  040%=      5-min Rain = 0
KLE1 090933Z 26005KT 11/M02 A2981 RMK A01 T01141016  RH  040%=      5-min Rain = 0
KLE1 090934Z 27006KT 11/M02 A2981 RMK A01 T01141015  RH  041%=      5-min Rain = 0
KLE1 090935Z 27005KT 11/M01 A2981 RMK A01 T01141014  RH  041%=      5-min Rain = 0
KLE1 090936Z 27004KT 11/M01 A2981 RMK A01 T01141014  RH  041%=      5-min Rain = 0
KLE1 090937Z 27005KT 11/M02 A2981 RMK A01 T01141015  RH  041%=      5-min Rain = 0
KLE1 090938Z 25007KT 12/M01 A2981 RMK A01 T01151014  RH  041%=      5-min Rain = 0
KLE1 090939Z 25008KT 12/M01 A2981 RMK A01 T01151012  RH  041%=      5-min Rain = 0
KLE1 090940Z 25009KT 12/M01 A2981 RMK A01 T01171010  RH  041%=      5-min Rain = 0
KLE1 090941Z 26009KT 12/M01 A2981 RMK A01 T01181009  RH  041%=      5-min Rain = 0
KLE1 090942Z 28008KT 12/M01 A2981 RMK A01 T01191008  RH  041%=      5-min Rain = 0
KLE1 090943Z 26009KT 12/M01 A298 RMK A01 T01211009  RH  041%=      5-min Rain = 0
KLE1 090944Z 25009KT 12/M01 A298 RMK A01 T01231007  RH  040%=      5-min Rain = 0
KLE1 090945Z 26009KT 13/M01 A298 RMK A01 T01261007  RH  040%=      5-min Rain = 0
KLE1 090946Z 27008KT 13/M01 A298 RMK A01 T01271008  RH  039%=      5-min Rain = 0
KLE1 090947Z 28006KT 13/M01 A298 RMK A01 T01271009  RH  039%=      5-min Rain = 0
KLE1 090948Z 29006KT 13/M01 A298 RMK A01 T01251011  RH  039%=      5-min Rain = 0
KLE1 090949Z 29006KT 12/M01 A298 RMK A01 T01231012  RH  039%=      5-min Rain = 0
KLE1 090950Z 30006KT 12/M01 A298 RMK A01 T01221012  RH  039%=      5-min Rain = 0
KLE1 090951Z 30005KT 12/M01 A298 RMK A01 T01221012  RH  039%=      5-min Rain = 0
KLE1 090952Z 30007KT 12/M01 A298 RMK A01 T01211012  RH  040%=      5-min Rain = 0
KLE1 090953Z 29008KT 12/M01 A298 RMK A01 T01191012  RH  040%=      5-min Rain = 0
KLE1 090954Z 29009KT 12/M01 A298 RMK A01 T01171012  RH  041%=      5-min Rain = 0
KLE1 090955Z 29008KT 12/M01 A298 RMK A01 T01171012  RH  041%=      5-min Rain = 0
KLE1 090956Z 29008KT 12/M01 A298 RMK A01 T01171012  RH  041%=      5-min Rain = 0
KLE1 090957Z 29009KT 12/M01 A298 RMK A01 T01171012  RH  041%=      5-min Rain = 0
KLE1 090958Z 28008KT 12/M01 A298 RMK A01 T01161013  RH  041%=      5-min Rain = 0
KLE1 090959Z 29008KT 12/M01 A298 RMK A01 T01161012  RH  041%=      5-min Rain = 0
KLE1 091000Z 28007KT 12/M01 A298 RMK A01 T01161012  RH  041%=      5-min Rain = 0
KLE1 091001Z 28007KT 12/M01 A298 RMK A01 T01161012  RH  041%=      5-min Rain = 0
KLE1 091002Z 27007KT 12/M01 A298 RMK A01 T01151012  RH  041%=      5-min Rain = 0
KLE1 091003Z 27007KT 12/M01 A298 RMK A01 T01151012  RH  041%=      5-min Rain = 0
KLE1 091004Z 27008KT 12/M01 A298 RMK A01 T01151012  RH  041%=      5-min Rain = 0
KLE1 091005Z 28007KT 12/M01 A298 RMK A01 T01151012  RH  041%=      5-min Rain = 0
KLE1 091006Z 27007KT 11/M01 A298 RMK A01 T01141012  RH  042%=      5-min Rain = 0
KLE1 091007Z 28009KT 11/M01 A298 RMK A01 T01131013  RH  042%=      5-min Rain = 0
KLE1 091008Z 28009KT 11/M01 A298 RMK A01 T01121012  RH  042%=      5-min Rain = 0
KLE1 091009Z 27010KT 11/M01 A298 RMK A01 T01111011  RH  042%=      5-min Rain = 0
KLE1 091010Z 27010KT 11/M01 A298 RMK A01 T01121011  RH  042%=      5-min Rain = 0
KLE1 091011Z 27010KT 11/M01 A298 RMK A01 T01111012  RH  042%=      5-min Rain = 0
KLE1 091012Z 26011KT 11/M01 A298 RMK A01 T01111012  RH  042%=      5-min Rain = 0
KLE1 091013Z 27011KT 11/M01 A298 RMK A01 T01121011  RH  042%=      5-min Rain = 0
KLE1 091014Z 27011KT 11/M01 A298 RMK A01 T01131010  RH  042%=      5-min Rain = 0
KLE1 091015Z 27012KT 12/M01 A298 RMK A01 T01151009  RH  042%=      5-min Rain = 0
KLE1 091016Z 26011KT 12/M01 A298 RMK A01 T01161010  RH  042%=      5-min Rain = 0
KLE1 091017Z 26012KT 12/M01 A298 RMK A01 T01171010  RH  042%=      5-min Rain = 0
KLE1 091018Z 26011KT 12/M01 A298 RMK A01 T01171010  RH  041%=      5-min Rain = 0
KLE1 091019Z 26011KT 12/M01 A298 RMK A01 T01181010  RH  041%=      5-min Rain = 0
KLE1 091020Z 27011KT 12/M01 A298 RMK A01 T01181010  RH  041%=      5-min Rain = 0
KLE1 091021Z 27012KT 12/M01 A298 RMK A01 T01181010  RH  041%=      5-min Rain = 0
KLE1 091022Z 26012KT 12/M01 A298 RMK A01 T01191010  RH  041%=      5-min Rain = 0
KLE1 091023Z 27012KT 12/M01 A298 RMK A01 T01191009  RH  041%=      5-min Rain = 0
KLE1 091024Z 27012KT 12/M01 A298 RMK A01 T01181010  RH  041%=      5-min Rain = 0
KLE1 091025Z 27011KT 12/M01 A298 RMK A01 T01181010  RH  041%=      5-min Rain = 0
KLE1 091026Z 27012KT 12/M01 A298 RMK A01 T01171010  RH  041%=      5-min Rain = 0
KLE1 091027Z 27011KT 12/M01 A298 RMK A01 T01181010  RH  041%=      5-min Rain = 0
KLE1 091028Z 27011KT 12/M01 A2979 RMK A01 T01181010  RH  041%=      5-min Rain = 0
KLE1 091029Z 27012KT 12/M01 A2979 RMK A01 T01181010  RH  041%=      5-min Rain = 0
KLE1 091030Z 27013KT 12/M01 A2979 RMK A01 T01201009  RH  041%=      5-min Rain = 0
KLE1 091031Z 27014KT 12/M01 A2979 RMK A01 T01211008  RH  041%=      5-min Rain = 0
KLE1 091032Z 26014KT 12/M01 A2979 RMK A01 T01221008  RH  041%=      5-min Rain = 0
KLE1 091033Z 26014KT 12/M01 A2979 RMK A01 T01231008  RH  040%=      5-min Rain = 0
KLE1 091034Z 26015KT 12/M01 A2979 RMK A01 T01241007  RH  040%=      5-min Rain = 0
KLE1 091035Z 26014KT 12/M01 A2979 RMK A01 T01241007  RH  040%=      5-min Rain = 0
KLE1 091036Z 26014KT 12/M01 A2979 RMK A01 T01241007  RH  040%=      5-min Rain = 0
KLE1 091037Z 26013KT 12/M01 A2979 RMK A01 T01241008  RH  040%=      5-min Rain = 0
KLE1 091038Z 26014KT 12/M01 A2979 RMK A01 T01221009  RH  040%=      5-min Rain = 0
KLE1 091039Z 26014KT 12/M01 A2979 RMK A01 T01201008  RH  041%=      5-min Rain = 0
KLE1 091040Z 26014KT 12/M01 A2979 RMK A01 T01201008  RH  041%=      5-min Rain = 0
KLE1 091041Z 26014KT 12/M01 A2979 RMK A01 T01191008  RH  041%=      5-min Rain = 0
KLE1 091042Z 26014KT 12/M01 A2979 RMK A01 T01181008  RH  042%=      5-min Rain = 0
KLE1 091043Z 26014KT 12/M01 A2979 RMK A01 T01191007  RH  042%=      5-min Rain = 0
KLE1 091044Z 26014KT 12/M01 A2979 RMK A01 T01201008  RH  041%=      5-min Rain = 0
KLE1 091045Z 26013KT 12/M01 A2979 RMK A01 T01201008  RH  041%=      5-min Rain = 0
KLE1 091046Z 26014KT 12/M01 A2979 RMK A01 T01211007  RH  041%=      5-min Rain = 0
KLE1 091047Z 25014KT 12/M01 A2979 RMK A01 T01211008  RH  041%=      5-min Rain = 0
KLE1 091048Z 25014KT 12/M01 A2979 RMK A01 T01211008  RH  041%=      5-min Rain = 0
KLE1 091049Z 25013KT 12/M01 A2979 RMK A01 T01211008  RH  041%=      5-min Rain = 0
KLE1 091050Z 25013KT 12/M01 A2979 RMK A01 T01211008  RH  041%=      5-min Rain = 0
KLE1 091051Z 25013KT 12/M01 A2979 RMK A01 T01211009  RH  041%=      5-min Rain = 0
KLE1 091052Z 25013KT 12/M01 A2979 RMK A01 T01211008  RH  041%=      5-min Rain = 0
KLE1 091053Z 25012KT 12/M01 A2979 RMK A01 T01201009  RH  041%=      5-min Rain = 0
KLE1 091054Z 25012KT 12/M01 A2979 RMK A01 T01191009  RH  041%=      5-min Rain = 0
KLE1 091055Z 25012KT 12/M01 A2978 RMK A01 T01181009  RH  041%=      5-min Rain = 0
KLE1 091056Z 25012KT 12/M01 A2978 RMK A01 T01181009  RH  041%=      5-min Rain = 0
KLE1 091057Z 25012KT 12/M01 A2978 RMK A01 T01171010  RH  041%=      5-min Rain = 0
KLE1 091058Z 25012KT 12/M01 A2978 RMK A01 T01161009  RH  042%=      5-min Rain = 0
KLE1 091059Z 25012KT 12/M01 A2978 RMK A01 T01151010  RH  042%=      5-min Rain = 0
KLE1 091100Z 25011KT 12/M01 A2978 RMK A01 T01151009  RH  042%=      5-min Rain = 0
KLE1 091101Z 25011KT 12/M01 A2978 RMK A01 T01151010  RH  042%=      5-min Rain = 0
KLE1 091102Z 26011KT 12/M01 A2979 RMK A01 T01151010  RH  042%=      5-min Rain = 0
KLE1 091103Z 26011KT 11/M01 A2979 RMK A01 T01141010  RH  042%=      5-min Rain = 0
KLE1 091104Z 26011KT 11/M01 A2979 RMK A01 T01131010  RH  042%=      5-min Rain = 0
KLE1 091105Z 26011KT 11/M01 A2978 RMK A01 T01121011  RH  043%=      5-min Rain = 0
KLE1 091106Z 25011KT 11/M01 A2978 RMK A01 T01101011  RH  043%=      5-min Rain = 0
KLE1 091107Z 25011KT 11/M01 A2978 RMK A01 T01101011  RH  043%=      5-min Rain = 0
KLE1 091108Z 25011KT 11/M01 A2978 RMK A01 T01101010  RH  043%=      5-min Rain = 0
KLE1 091109Z 25011KT 11/M01 A2978 RMK A01 T01091011  RH  043%=      5-min Rain = 0
KLE1 091110Z 25011KT 11/M01 A2978 RMK A01 T01081011  RH  044%=      5-min Rain = 0
KLE1 091111Z 25011KT 11/M01 A2978 RMK A01 T01071011  RH  044%=      5-min Rain = 0
KLE1 091112Z 25010KT 11/M01 A2978 RMK A01 T01071011  RH  044%=      5-min Rain = 0
KLE1 091113Z 25010KT 11/M01 A2978 RMK A01 T01061011  RH  044%=      5-min Rain = 0
KLE1 091114Z 24010KT 10/M01 A2978 RMK A01 T01041012  RH  044%=      5-min Rain = 0
KLE1 091115Z 24010KT 10/M01 A2978 RMK A01 T01031012  RH  045%=      5-min Rain = 0
KLE1 091116Z 24011KT 10/M01 A2978 RMK A01 T01021012  RH  045%=      5-min Rain = 0
KLE1 091117Z 24010KT 10/M01 A2978 RMK A01 T01031010  RH  045%=      5-min Rain = 0
KLE1 091118Z 24009KT 11/M01 A2978 RMK A01 T01051010  RH  045%=      5-min Rain = 0
KLE1 091119Z 25009KT 11/M01 A2978 RMK A01 T01061010  RH  044%=      5-min Rain = 0
KLE1 091120Z 25009KT 11/M01 A2978 RMK A01 T01061010  RH  044%=      5-min Rain = 0
KLE1 091121Z 25009KT 11/M01 A2978 RMK A01 T01061011  RH  044%=      5-min Rain = 0
KLE1 091122Z 26008KT 10/M01 A2978 RMK A01 T01041013  RH  044%=      5-min Rain = 0
KLE1 091123Z 26008KT 10/M01 A2978 RMK A01 T01021014  RH  044%=      5-min Rain = 0
KLE1 091124Z 25009KT 10/M02 A2978 RMK A01 T00991015  RH  045%=      5-min Rain = 0
KLE1 091125Z 25009KT 10/M02 A2978 RMK A01 T00971015  RH  046%=      5-min Rain = 0
KLE1 091126Z 25009KT 10/M02 A2978 RMK A01 T00951016  RH  046%=      5-min Rain = 0
KLE1 091127Z 25010KT 09/M02 A2978 RMK A01 T00941016  RH  046%=      5-min Rain = 0
KLE1 091128Z 25010KT 09/M02 A2978 RMK A01 T00911016  RH  047%=      5-min Rain = 0
KLE1 091129Z 24010KT 09/M02 A2978 RMK A01 T00911016  RH  047%=      5-min Rain = 0
KLE1 091130Z 25011KT 09/M02 A2978 RMK A01 T00901015  RH  048%=      5-min Rain = 0
KLE1 091131Z 25010KT 09/M02 A2978 RMK A01 T00901015  RH  048%=      5-min Rain = 0
KLE1 091132Z 25011KT 09/M01 A2978 RMK A01 T00901014  RH  048%=      5-min Rain = 0
KLE1 091133Z 25011KT 09/M01 A2978 RMK A01 T00891014  RH  048%=      5-min Rain = 0
KLE1 091134Z 25011KT 09/M01 A2978 RMK A01 T00901014  RH  048%=      5-min Rain = 0
KLE1 091135Z 25011KT 09/M01 A2978 RMK A01 T00911013  RH  048%=      5-min Rain = 0
KLE1 091136Z 25011KT 09/M01 A2978 RMK A01 T00911013  RH  048%=      5-min Rain = 0
KLE1 091137Z 25011KT 09/M01 A2978 RMK A01 T00921013  RH  048%=      5-min Rain = 0
KLE1 091138Z 25010KT 09/M01 A2978 RMK A01 T00921013  RH  048%=      5-min Rain = 0
KLE1 091139Z 25010KT 09/M01 A2978 RMK A01 T00921014  RH  048%=      5-min Rain = 0
KLE1 091140Z 25010KT 09/M01 A2978 RMK A01 T00911014  RH  048%=      5-min Rain = 0
KLE1 091141Z 25009KT 09/M01 A2978 RMK A01 T00911014  RH  048%=      5-min Rain = 0
KLE1 091142Z 25009KT 09/M01 A2978 RMK A01 T00901014  RH  048%=      5-min Rain = 0
KLE1 091143Z 25009KT 09/M01 A2978 RMK A01 T00891014  RH  048%=      5-min Rain = 0
KLE1 091144Z 25009KT 09/M02 A2978 RMK A01 T00881015  RH  049%=      5-min Rain = 0
KLE1 091145Z 25009KT 09/M01 A2978 RMK A01 T00881014  RH  049%=      5-min Rain = 0
KLE1 091146Z 25009KT 09/M01 A2978 RMK A01 T00881014  RH  049%=      5-min Rain = 0
KLE1 091147Z 25009KT 09/M01 A2978 RMK A01 T00881014  RH  049%=      5-min Rain = 0
KLE1 091148Z 25008KT 09/M01 A2977 RMK A01 T00881014  RH  049%=      5-min Rain = 0
KLE1 091149Z 25008KT 09/M01 A2977 RMK A01 T00881014  RH  049%=      5-min Rain = 0
KLE1 091150Z 26008KT 09/M01 A2977 RMK A01 T00881014  RH  049%=      5-min Rain = 0
KLE1 091151Z 27006KT 09/M02 A2977 RMK A01 T00871015  RH  049%=      5-min Rain = 0
KLE1 091152Z 27006KT 09/M02 A2977 RMK A01 T00861017  RH  048%=      5-min Rain = 0
KLE1 091153Z 26007KT 08/M02 A2978 RMK A01 T00841018  RH  048%=      5-min Rain = 0
KLE1 091154Z 26007KT 08/M02 A2978 RMK A01 T00841018  RH  049%=      5-min Rain = 0
KLE1 091155Z 26007KT 08/M02 A2977 RMK A01 T00841018  RH  049%=      5-min Rain = 0
KLE1 091156Z 26007KT 08/M02 A2977 RMK A01 T00841018  RH  049%=      5-min Rain = 0
KLE1 091157Z 26008KT 09/M02 A2977 RMK A01 T00851017  RH  049%=      5-min Rain = 0
KLE1 091158Z 25008KT 09/M02 A2977 RMK A01 T00861016  RH  049%=      5-min Rain = 0
KLE1 091159Z 25008KT 09/M02 A2977 RMK A01 T00881015  RH  048%=      5-min Rain = 0
KLE1 091200Z 25008KT 09/M02 A2977 RMK A01 T00881015  RH  048%=      5-min Rain = 0
KLE1 091201Z 25008KT 09/M01 A2977 RMK A01 T00891014  RH  048%=      5-min Rain = 0
KLE1 091202Z 24008KT 09/M02 A2977 RMK A01 T00891015  RH  048%=      5-min Rain = 0
KLE1 091203Z 24008KT 09/M02 A2977 RMK A01 T00891015  RH  048%=      5-min Rain = 0
KLE1 091204Z 25008KT 09/M02 A2977 RMK A01 T00881016  RH  048%=      5-min Rain = 0
KLE1 091205Z 26007KT 09/M02 A2978 RMK A01 T00871017  RH  048%=      5-min Rain = 0
KLE1 091206Z 29004KT 09/M02 A2978 RMK A01 T00861017  RH  048%=      5-min Rain = 0
KLE1 091207Z 31004KT 08/M02 A2978 RMK A01 T00831021  RH  048%=      5-min Rain = 0
KLE1 091208Z 28004KT 08/M02 A2978 RMK A01 T00801019  RH  050%=      5-min Rain = 0
KLE1 091209Z 27004KT 08/M02 A2978 RMK A01 T00811016  RH  050%=      5-min Rain = 0
KLE1 091210Z 27004KT 08/M02 A2978 RMK A01 T00831015  RH  050%=      5-min Rain = 0
KLE1 091211Z 27004KT 08/M02 A2978 RMK A01 T00841015  RH  050%=      5-min Rain = 0
KLE1 091212Z 27005KT 09/M01 A2978 RMK A01 T00851014  RH  049%=      5-min Rain = 0
KLE1 091213Z 27005KT 09/M01 A2977 RMK A01 T00871014  RH  049%=      5-min Rain = 0
KLE1 091214Z 27005KT 09/M01 A2977 RMK A01 T00881013  RH  049%=      5-min Rain = 0
KLE1 091215Z 27004KT 09/M01 A2978 RMK A01 T00881014  RH  049%=      5-min Rain = 0
KLE1 091216Z 28005KT 09/M01 A2978 RMK A01 T00881014  RH  049%=      5-min Rain = 0
KLE1 091217Z 28005KT 09/M01 A2978 RMK A01 T00881014  RH  049%=      5-min Rain = 0
KLE1 091218Z 28005KT 09/M02 A2978 RMK A01 T00881015  RH  048%=      5-min Rain = 0
KLE1 091219Z 29006KT 09/M02 A2978 RMK A01 T00881015  RH  048%=      5-min Rain = 0
KLE1 091220Z 29006KT 09/M02 A2978 RMK A01 T00881015  RH  048%=      5-min Rain = 0
KLE1 091221Z 28006KT 09/M01 A2978 RMK A01 T00881014  RH  049%=      5-min Rain = 0
KLE1 091222Z 29006KT 09/M01 A2978 RMK A01 T00901014  RH  048%=      5-min Rain = 0
KLE1 091223Z 30005KT 09/M02 A2978 RMK A01 T00901015  RH  048%=      5-min Rain = 0
KLE1 091224Z 29005KT 09/M02 A2978 RMK A01 T00861018  RH  048%=      5-min Rain = 0
KLE1 091225Z 27005KT 08/M02 A2978 RMK A01 T00841016  RH  049%=      5-min Rain = 0
KLE1 091226Z 27005KT 08/M02 A2978 RMK A01 T00841016  RH  049%=      5-min Rain = 0
KLE1 091227Z 27006KT 09/M02 A2978 RMK A01 T00851016  RH  049%=      5-min Rain = 0
KLE1 091228Z 27005KT 09/M02 A2978 RMK A01 T00851017  RH  049%=      5-min Rain = 0
KLE1 091229Z 27006KT 08/M02 A2978 RMK A01 T00821018  RH  049%=      5-min Rain = 0
KLE1 091230Z 27006KT 08/M02 A2977 RMK A01 T00801017  RH  050%=      5-min Rain = 0
KLE1 091231Z 26006KT 08/M02 A2977 RMK A01 T00801016  RH  050%=      5-min Rain = 0
KLE1 091232Z 26007KT 08/M02 A2977 RMK A01 T00801016  RH  051%=      5-min Rain = 0
KLE1 091233Z 26007KT 08/M02 A2977 RMK A01 T00781016  RH  051%=      5-min Rain = 0
KLE1 091234Z 26008KT 08/M02 A2977 RMK A01 T00771015  RH  052%=      5-min Rain = 0
KLE1 091235Z 26008KT 08/M02 A2977 RMK A01 T00761015  RH  053%=      5-min Rain = 0
KLE1 091236Z 26008KT 08/M01 A2977 RMK A01 T00751014  RH  053%=      5-min Rain = 0
KLE1 091237Z 26008KT 08/M01 A2977 RMK A01 T00761014  RH  053%=      5-min Rain = 0
KLE1 091238Z 26008KT 08/M02 A2977 RMK A01 T00761015  RH  053%=      5-min Rain = 0
KLE1 091239Z 27008KT 08/M02 A2977 RMK A01 T00761015  RH  053%=      5-min Rain = 0
KLE1 091240Z 26008KT 08/M02 A2977 RMK A01 T00761016  RH  052%=      5-min Rain = 0
KLE1 091241Z 27008KT 08/M02 A2977 RMK A01 T00761017  RH  052%=      5-min Rain = 0
KLE1 091242Z 27007KT 08/M02 A2977 RMK A01 T00751019  RH  052%=      5-min Rain = 0
KLE1 091243Z 27006KT 07/M02 A2977 RMK A01 T00731020  RH  052%=      5-min Rain = 0
KLE1 091244Z 28005KT 07/M02 A2977 RMK A01 T00721021  RH  051%=      5-min Rain = 0
KLE1 091245Z 28005KT 07/M02 A2977 RMK A01 T00711023  RH  051%=      5-min Rain = 0
KLE1 091246Z 29004KT 07/M02 A2977 RMK A01 T00711024  RH  051%=      5-min Rain = 0
KLE1 091247Z 30004KT 07/M03 A2978 RMK A01 T00711025  RH  050%=      5-min Rain = 0
KLE1 091248Z 29003KT 07/M03 A2978 RMK A01 T00711025  RH  050%=      5-min Rain = 0
KLE1 091249Z 33004KT 07/M03 A2978 RMK A01 T00691026  RH  051%=      5-min Rain = 0
KLE1 091250Z 33003KT 07/M03 A2978 RMK A01 T00681025  RH  051%=      5-min Rain = 0
KLE1 091251Z 32004KT 07/M02 A2978 RMK A01 T00681024  RH  052%=      5-min Rain = 0
KLE1 091252Z 30004KT 07/M02 A2978 RMK A01 T00691024  RH  051%=      5-min Rain = 0
KLE1 091253Z 29004KT 07/M02 A2978 RMK A01 T00711023  RH  051%=      5-min Rain = 0
KLE1 091254Z 28005KT 07/M02 A2978 RMK A01 T00721024  RH  050%=      5-min Rain = 0
KLE1 091255Z 27005KT 07/M02 A2977 RMK A01 T00741024  RH  050%=      5-min Rain = 0
KLE1 091256Z 27005KT 08/M02 A2977 RMK A01 T00751024  RH  049%=      5-min Rain = 0
KLE1 091257Z 26005KT 08/M02 A2977 RMK A01 T00761024  RH  049%=      5-min Rain = 0
KLE1 091258Z 26005KT 08/M03 A2977 RMK A01 T00751025  RH  049%=      5-min Rain = 0
KLE1 091259Z 27004KT 08/M02 A2977 RMK A01 T00761024  RH  049%=      5-min Rain = 0
KLE1 091300Z 27004KT 08/M03 A2977 RMK A01 T00751025  RH  049%=      5-min Rain = 0
KLE1 091301Z 28004KT 07/M03 A2977 RMK A01 T00741025  RH  049%=      5-min Rain = 0
KLE1 091302Z 29004KT 07/M03 A2978 RMK A01 T00741025  RH  049%=      5-min Rain = 0
KLE1 091303Z 30004KT 07/M03 A2978 RMK A01 T00741025  RH  049%=      5-min Rain = 0
KLE1 091304Z 32004KT 07/M03 A2978 RMK A01 T00731026  RH  049%=      5-min Rain = 0
KLE1 091305Z 32004KT 07/M03 A2978 RMK A01 T00731026  RH  049%=      5-min Rain = 0
KLE1 091306Z 31003KT 07/M03 A2978 RMK A01 T00731026  RH  049%=      5-min Rain = 0
KLE1 091307Z 30003KT 07/M03 A2978 RMK A01 T00731026  RH  049%=      5-min Rain = 0
KLE1 091308Z 30003KT 07/M03 A2978 RMK A01 T00731026  RH  050%=      5-min Rain = 0
KLE1 091309Z 29004KT 07/M03 A2978 RMK A01 T00731026  RH  050%=      5-min Rain = 0
KLE1 091310Z 29004KT 07/M03 A2978 RMK A01 T00741026  RH  049%=      5-min Rain = 0
KLE1 091311Z 28005KT 08/M03 A2978 RMK A01 T00751026  RH  049%=      5-min Rain = 0
KLE1 091312Z 28005KT 08/M03 A2978 RMK A01 T00761026  RH  048%=      5-min Rain = 0
KLE1 091313Z 29005KT 08/M03 A2977 RMK A01 T00761027  RH  048%=      5-min Rain = 0
KLE1 091314Z 29006KT 08/M03 A2977 RMK A01 T00761027  RH  048%=      5-min Rain = 0
KLE1 091315Z 28006KT 08/M03 A2977 RMK A01 T00761026  RH  048%=      5-min Rain = 0
KLE1 091316Z 28006KT 08/M03 A2977 RMK A01 T00751026  RH  048%=      5-min Rain = 0
KLE1 091317Z 28007KT 08/M03 A2977 RMK A01 T00761026  RH  048%=      5-min Rain = 0
KLE1 091318Z 28007KT 07/M03 A2977 RMK A01 T00741027  RH  049%=      5-min Rain = 0
KLE1 091319Z 29007KT 07/M03 A2977 RMK A01 T00731027  RH  049%=      5-min Rain = 0
KLE1 091320Z 28007KT 07/M03 A2977 RMK A01 T00731027  RH  049%=      5-min Rain = 0
KLE1 091321Z 28007KT 07/M03 A2977 RMK A01 T00721028  RH  049%=      5-min Rain = 0
KLE1 091322Z 27007KT 07/M03 A2977 RMK A01 T00731028  RH  049%=      5-min Rain = 0
KLE1 091323Z 27007KT 07/M03 A2977 RMK A01 T00711029  RH  049%=      5-min Rain = 0
KLE1 091324Z 27006KT 07/M03 A2977 RMK A01 T00691031  RH  049%=      5-min Rain = 0
KLE1 091325Z 28005KT 07/M03 A2977 RMK A01 T00661032  RH  049%=      5-min Rain = 0
KLE1 091326Z 29006KT 07/M03 A2977 RMK A01 T00651033  RH  050%=      5-min Rain = 0
KLE1 091327Z 29006KT 07/M03 A2978 RMK A01 T00651033  RH  050%=      5-min Rain = 0
KLE1 091328Z 29006KT 07/M03 A2978 RMK A01 T00651033  RH  050%=      5-min Rain = 0
KLE1 091329Z 28007KT 07/M03 A2978 RMK A01 T00661033  RH  049%=      5-min Rain = 0
KLE1 091330Z 27007KT 07/M03 A2978 RMK A01 T00681030  RH  049%=      5-min Rain = 0
KLE1 091331Z 26007KT 07/M03 A2977 RMK A01 T00711030  RH  049%=      5-min Rain = 0
KLE1 091332Z 26007KT 07/M03 A2977 RMK A01 T00731030  RH  048%=      5-min Rain = 0
KLE1 091333Z 27008KT 08/M03 A2978 RMK A01 T00751030  RH  047%=      5-min Rain = 0
KLE1 091334Z 27007KT 08/M03 A2978 RMK A01 T00761030  RH  047%=      5-min Rain = 0
KLE1 091335Z 27007KT 08/M03 A2978 RMK A01 T00761030  RH  047%=      5-min Rain = 0
KLE1 091336Z 25005KT 08/M03 A2978 RMK A01 T00761030  RH  047%=      5-min Rain = 0
KLE1 091337Z 26005KT 08/M03 A2978 RMK A01 T00771031  RH  046%=      5-min Rain = 0
KLE1 091338Z 26004KT 08/M03 A2978 RMK A01 T00771031  RH  046%=      5-min Rain = 0
KLE1 091339Z 27004KT 08/M03 A2978 RMK A01 T00761031  RH  047%=      5-min Rain = 0
KLE1 091340Z 27004KT 07/M03 A2978 RMK A01 T00741031  RH  047%=      5-min Rain = 0
KLE1 091341Z 27004KT 07/M03 A2978 RMK A01 T00731032  RH  048%=      5-min Rain = 0
KLE1 091342Z 28004KT 07/M03 A2978 RMK A01 T00721032  RH  048%=      5-min Rain = 0
KLE1 091343Z 28004KT 07/M03 A2978 RMK A01 T00711032  RH  048%=      5-min Rain = 0
KLE1 091344Z 29004KT 07/M03 A2978 RMK A01 T00701032  RH  048%=      5-min Rain = 0
KLE1 091345Z 29007KT 07/M03 A2978 RMK A01 T00701032  RH  048%=      5-min Rain = 0
KLE1 091346Z 29008KT 07/M03 A2978 RMK A01 T00721030  RH  048%=      5-min Rain = 0
KLE1 091347Z 29009KT 08/M03 A2978 RMK A01 T00761029  RH  047%=      5-min Rain = 0
KLE1 091348Z 29009KT 08/M03 A2978 RMK A01 T00801029  RH  046%=      5-min Rain = 0
KLE1 091349Z 29009KT 08/M03 A2978 RMK A01 T00821029  RH  045%=      5-min Rain = 0
KLE1 091350Z 29009KT 08/M03 A2978 RMK A01 T00831029  RH  045%=      5-min Rain = 0
KLE1 091351Z 29009KT 08/M03 A2978 RMK A01 T00831030  RH  045%=      5-min Rain = 0
KLE1 091352Z 29008KT 08/M03 A2978 RMK A01 T00831030  RH  045%=      5-min Rain = 0
KLE1 091353Z 29008KT 08/M03 A2978 RMK A01 T00831029  RH  045%=      5-min Rain = 0
KLE1 091354Z 29008KT 08/M03 A2979 RMK A01 T00821029  RH  045%=      5-min Rain = 0
KLE1 091355Z 29008KT 08/M03 A2979 RMK A01 T00821029  RH  045%=      5-min Rain = 0
KLE1 091356Z 29008KT 08/M03 A2979 RMK A01 T00821029  RH  045%=      5-min Rain = 0
KLE1 091357Z 29008KT 08/M03 A2979 RMK A01 T00821029  RH  046%=      5-min Rain = 0
KLE1 091358Z 29009KT 08/M03 A2979 RMK A01 T00821029  RH  046%=      5-min Rain = 0
KLE1 091359Z 29009KT 08/M03 A2979 RMK A01 T00821029  RH  045%=      5-min Rain = 0
KLE1 091400Z 29009KT 08/M03 A2979 RMK A01 T00831029  RH  045%=      5-min Rain = 0
KLE1 091401Z 29009KT 08/M03 A2979 RMK A01 T00841029  RH  045%=      5-min Rain = 0
KLE1 091402Z 29009KT 09/M03 A2979 RMK A01 T00851030  RH  044%=      5-min Rain = 0
KLE1 091403Z 30009KT 09/M03 A2979 RMK A01 T00861030  RH  044%=      5-min Rain = 0
KLE1 091404Z 30010KT 09/M03 A2979 RMK A01 T00871030  RH  044%=      5-min Rain = 0
KLE1 091405Z 30010KT 09/M03 A2979 RMK A01 T00881030  RH  043%=      5-min Rain = 0
KLE1 091406Z 29011KT 09/M03 A2979 RMK A01 T00881031  RH  043%=      5-min Rain = 0
KLE1 091407Z 29010KT 09/M03 A2979 RMK A01 T00891031  RH  042%=      5-min Rain = 0
KLE1 091408Z 29010KT 09/M03 A2979 RMK A01 T00901031  RH  042%=      5-min Rain = 0
KLE1 091409Z 29010KT 09/M03 A2979 RMK A01 T00911031  RH  042%=      5-min Rain = 0
KLE1 091410Z 30010KT 09/M03 A2979 RMK A01 T00921031  RH  042%=      5-min Rain = 0
KLE1 091411Z 29011KT 09/M03 A2979 RMK A01 T00931032  RH  041%=      5-min Rain = 0
KLE1 091412Z 30010KT 10/M03 A2979 RMK A01 T00951032  RH  041%=      5-min Rain = 0
KLE1 091413Z 29012KT 10/M03 A2979 RMK A01 T00961033  RH  040%=      5-min Rain = 0
KLE1 091414Z 29012KT 10/M03 A2979 RMK A01 T00971034  RH  040%=      5-min Rain = 0
KLE1 091415Z 29011KT 10/M04 A2979 RMK A01 T00981035  RH  039%=      5-min Rain = 0
KLE1 091416Z 29011KT 10/M03 A2979 RMK A01 T00991034  RH  039%=      5-min Rain = 0
KLE1 091417Z 29010KT 10/M03 A2979 RMK A01 T00991034  RH  039%=      5-min Rain = 0
KLE1 091418Z 29010KT 10/M03 A2979 RMK A01 T01001034  RH  039%=      5-min Rain = 0
KLE1 091419Z 29011KT 10/M04 A2979 RMK A01 T01011035  RH  038%=      5-min Rain = 0
KLE1 091420Z 29011KT 10/M04 A2979 RMK A01 T01011035  RH  038%=      5-min Rain = 0
KLE1 091421Z 29010KT 10/M04 A2979 RMK A01 T01011036  RH  038%=      5-min Rain = 0
KLE1 091422Z 28011KT 10/M04 A2979 RMK A01 T01021035  RH  038%=      5-min Rain = 0
KLE1 091423Z 28011KT 10/M04 A2979 RMK A01 T01021035  RH  038%=      5-min Rain = 0
KLE1 091424Z 28011KT 10/M04 A2979 RMK A01 T01021036  RH  038%=      5-min Rain = 0
KLE1 091425Z 28011KT 10/M04 A2979 RMK A01 T01031037  RH  037%=      5-min Rain = 0
KLE1 091426Z 28011KT 10/M04 A2979 RMK A01 T01031036  RH  037%=      5-min Rain = 0
KLE1 091427Z 28011KT 10/M04 A2979 RMK A01 T01041036  RH  037%=      5-min Rain = 0
KLE1 091428Z 28011KT 10/M04 A2979 RMK A01 T01041037  RH  037%=      5-min Rain = 0
KLE1 091429Z 28011KT 11/M04 A2979 RMK A01 T01051038  RH  036%=      5-min Rain = 0
KLE1 091430Z 28010KT 11/M04 A2978 RMK A01 T01051037  RH  036%=      5-min Rain = 0
KLE1 091431Z 28012KT 11/M04 A2979 RMK A01 T01061037  RH  036%=      5-min Rain = 0
KLE1 091432Z 28012KT 11/M04 A2978 RMK A01 T01071038  RH  036%=      5-min Rain = 0
KLE1 091433Z 28011KT 11/M04 A2978 RMK A01 T01081038  RH  036%=      5-min Rain = 0
KLE1 091434Z 28013KT 11/M04 A2978 RMK A01 T01081039  RH  035%=      5-min Rain = 0
KLE1 091435Z 28011KT 11/M04 A2978 RMK A01 T01081040  RH  035%=      5-min Rain = 0
KLE1 091436Z 28012KT 11/M04 A2978 RMK A01 T01091039  RH  035%=      5-min Rain = 0
KLE1 091437Z 28010KT 11/M04 A2978 RMK A01 T01101039  RH  035%=      5-min Rain = 0
KLE1 091438Z 28011KT 11/M04 A2978 RMK A01 T01111038  RH  035%=      5-min Rain = 0
KLE1 091439Z 28011KT 11/M04 A2978 RMK A01 T01111039  RH  035%=      5-min Rain = 0
KLE1 091440Z 28011KT 11/M04 A2978 RMK A01 T01121037  RH  035%=      5-min Rain = 0
KLE1 091441Z 28012KT 11/M04 A2978 RMK A01 T01131039  RH  034%=      5-min Rain = 0
KLE1 091442Z 28012KT 11/M04 A2978 RMK A01 T01131040  RH  034%=      5-min Rain = 0
KLE1 091443Z 27011KT 11/M04 A2978 RMK A01 T01131039  RH  034%=      5-min Rain = 0
KLE1 091444Z 28013KT 11/M04 A2978 RMK A01 T01131040  RH  034%=      5-min Rain = 0
KLE1 091445Z 28012KT 11/M04 A2978 RMK A01 T01131042  RH  033%=      5-min Rain = 0
KLE1 091446Z 27012KT 11/M04 A2978 RMK A01 T01141043  RH  033%=      5-min Rain = 0
KLE1 091447Z 27011KT 11/M04 A2978 RMK A01 T01141042  RH  033%=      5-min Rain = 0
KLE1 091448Z 28013KT 11/M04 A2978 RMK A01 T01141044  RH  033%=      5-min Rain = 0
KLE1 091449Z 28013KT 11/M05 A2978 RMK A01 T01141045  RH  033%=      5-min Rain = 0
KLE1 091450Z 28013KT 11/M04 A2978 RMK A01 T01131044  RH  033%=      5-min Rain = 0
KLE1 091451Z 28012KT 11/M05 A2978 RMK A01 T01141045  RH  033%=      5-min Rain = 0
KLE1 091452Z 28012KT 11/M04 A2978 RMK A01 T01141044  RH  033%=      5-min Rain = 0
KLE1 091453Z 28012KT 12/M04 A2978 RMK A01 T01151044  RH  033%=      5-min Rain = 0
KLE1 091454Z 28012KT 12/M05 A2978 RMK A01 T01161045  RH  032%=      5-min Rain = 0
KLE1 091455Z 28012KT 12/M05 A2978 RMK A01 T01171045  RH  032%=      5-min Rain = 0
KLE1 091456Z 28012KT 12/M05 A2978 RMK A01 T01171045  RH  032%=      5-min Rain = 0
KLE1 091457Z 29011KT 12/M05 A2978 RMK A01 T01181045  RH  032%=      5-min Rain = 0
KLE1 091458Z 28012KT 12/M04 A2978 RMK A01 T01201043  RH  032%=      5-min Rain = 0
KLE1 091459Z 28010KT 12/M04 A2978 RMK A01 T01201043  RH  032%=      5-min Rain = 0
KLE1 091500Z 27010KT 12/M04 A2978 RMK A01 T01201042  RH  032%=      5-min Rain = 0
KLE1 091501Z 28009KT 12/M04 A2978 RMK A01 T01211042  RH  032%=      5-min Rain = 0
KLE1 091502Z 29010KT 12/M04 A2978 RMK A01 T01221044  RH  031%=      5-min Rain = 0
KLE1 091503Z 27010KT 12/M04 A2978 RMK A01 T01231043  RH  031%=      5-min Rain = 0
KLE1 091504Z 27009KT 12/M04 A2978 RMK A01 T01241044  RH  031%=      5-min Rain = 0
KLE1 091505Z 27010KT 13/M05 A2978 RMK A01 T01251045  RH  030%=      5-min Rain = 0
KLE1 091506Z 28010KT 13/M05 A2978 RMK A01 T01251045  RH  030%=      5-min Rain = 0
KLE1 091507Z 28011KT 13/M04 A2978 RMK A01 T01261043  RH  030%=      5-min Rain = 0
KLE1 091508Z 28011KT 13/M05 A2978 RMK A01 T01271045  RH  030%=      5-min Rain = 0
KLE1 091509Z 27011KT 13/M05 A2978 RMK A01 T01291045  RH  030%=      5-min Rain = 0
KLE1 091510Z 28012KT 13/M05 A2978 RMK A01 T01301049  RH  029%=      5-min Rain = 0
KLE1 091511Z 28012KT 13/M05 A2978 RMK A01 T01301050  RH  028%=      5-min Rain = 0
KLE1 091512Z 27010KT 13/M05 A2978 RMK A01 T01301050  RH  028%=      5-min Rain = 0
KLE1 091513Z 27011KT 13/M05 A2978 RMK A01 T01321048  RH  028%=      5-min Rain = 0
KLE1 091514Z 28011KT 13/M05 A2978 RMK A01 T01331049  RH  028%=      5-min Rain = 0
KLE1 091515Z 28012KT 13/M05 A2978 RMK A01 T01331049  RH  028%=      5-min Rain = 0
KLE1 091516Z 28010KT 13/M05 A2978 RMK A01 T01321049  RH  028%=      5-min Rain = 0
KLE1 091517Z 28010KT 13/M05 A2978 RMK A01 T01331049  RH  028%=      5-min Rain = 0
KLE1 091518Z 28009KT 14/M05 A2978 RMK A01 T01351048  RH  028%=      5-min Rain = 0
KLE1 091519Z 28010KT 14/M05 A2978 RMK A01 T01361050  RH  027%=      5-min Rain = 0
KLE1 091520Z 28010KT 14/M05 A2978 RMK A01 T01371050  RH  027%=      5-min Rain = 0
KLE1 091521Z 27010KT 14/M05 A2978 RMK A01 T01381049  RH  027%=      5-min Rain = 0
KLE1 091522Z 27009KT 14/M05 A2978 RMK A01 T01391051  RH  026%=      5-min Rain = 0
KLE1 091523Z 28009KT 14/M05 A2978 RMK A01 T01401048  RH  027%=      5-min Rain = 0
KLE1 091524Z 28010KT 14/M05 A2978 RMK A01 T01431048  RH  026%=      5-min Rain = 0
KLE1 091525Z 28010KT 14/M05 A2978 RMK A01 T01431052  RH  026%=      5-min Rain = 0
KLE1 091526Z 27011KT 14/M05 A2978 RMK A01 T01421051  RH  026%=      5-min Rain = 0
KLE1 091527Z 27011KT 14/M05 A2978 RMK A01 T01421051  RH  026%=      5-min Rain = 0
KLE1 091528Z 28011KT 14/M05 A2978 RMK A01 T01421051  RH  026%=      5-min Rain = 0
KLE1 091529Z 27012KT 14/M05 A2978 RMK A01 T01421052  RH  026%=      5-min Rain = 0
KLE1 091530Z 27010KT 14/M05 A2978 RMK A01 T01431054  RH  025%=      5-min Rain = 0
KLE1 091531Z 28011KT 14/M05 A2978 RMK A01 T01441053  RH  025%=      5-min Rain = 0
KLE1 091532Z 27010KT 15/M05 A2978 RMK A01 T01461053  RH  025%=      5-min Rain = 0
KLE1 091533Z 28010KT 15/M05 A2978 RMK A01 T01471054  RH  025%=      5-min Rain = 0
KLE1 091534Z 27012KT 15/M05 A2978 RMK A01 T01501053  RH  024%=      5-min Rain = 0
KLE1 091535Z 27012KT 15/M06 A2978 RMK A01 T01511056  RH  024%=      5-min Rain = 0
KLE1 091536Z 28011KT 15/M06 A2978 RMK A01 T01521055  RH  023%=      5-min Rain = 0
KLE1 091537Z 26013KT 15/M06 A2978 RMK A01 T01531058  RH  023%=      5-min Rain = 0
KLE1 091538Z 27010KT 15/M06 A2978 RMK A01 T01521060  RH  023%=      5-min Rain = 0
KLE1 091539Z 27012KT 15/M06 A2978 RMK A01 T01531057  RH  023%=      5-min Rain = 0
KLE1 091540Z 27013KT 16/M06 A2978 RMK A01 T01561057  RH  023%=      5-min Rain = 0
KLE1 091541Z 27012KT 16/M06 A2978 RMK A01 T01561059  RH  022%=      5-min Rain = 0
KLE1 091542Z 27012KT 16/M06 A2978 RMK A01 T01561059  RH  022%=      5-min Rain = 0
KLE1 091543Z 27013KT 16/M06 A2978 RMK A01 T01571059  RH  022%=      5-min Rain = 0
KLE1 091544Z 28012KT 16/M06 A2978 RMK A01 T01561061  RH  022%=      5-min Rain = 0
KLE1 091545Z 28011KT 16/M06 A2978 RMK A01 T01561061  RH  022%=      5-min Rain = 0
KLE1 091546Z 27010KT 16/M06 A2978 RMK A01 T01561061  RH  022%=      5-min Rain = 0
KLE1 091547Z 28011KT 16/M06 A2978 RMK A01 T01581060  RH  022%=      5-min Rain = 0
KLE1 091548Z 27009KT 16/M06 A2978 RMK A01 T01611059  RH  022%=      5-min Rain = 0
KLE1 091549Z 28010KT 16/M06 A2978 RMK A01 T01621062  RH  021%=      5-min Rain = 0
KLE1 091550Z 29011KT 16/M06 A2978 RMK A01 T01631062  RH  021%=      5-min Rain = 0
KLE1 091551Z 29012KT 16/M06 A2978 RMK A01 T01641064  RH  020%=      5-min Rain = 0
KLE1 091552Z 28010KT 16/M07 A2978 RMK A01 T01641065  RH  020%=      5-min Rain = 0
KLE1 091553Z 29010KT 17/M06 A2978 RMK A01 T01661063  RH  020%=      5-min Rain = 0
KLE1 091554Z 29013KT 17/M07 A2978 RMK A01 T01671065  RH  020%=      5-min Rain = 0
KLE1 091555Z 29012KT 17/M07 A2978 RMK A01 T01661067  RH  020%=      5-min Rain = 0
KLE1 091556Z 28011KT 17/M07 A2978 RMK A01 T01661067  RH  020%=      5-min Rain = 0
KLE1 091557Z 28011KT 17/M07 A2978 RMK A01 T01671066  RH  020%=      5-min Rain = 0
KLE1 091558Z 28011KT 17/M07 A2978 RMK A01 T01681065  RH  020%=      5-min Rain = 0
KLE1 091559Z 28011KT 17/M07 A2978 RMK A01 T01691065  RH  020%=      5-min Rain = 0
KLE1 091600Z 28011KT 17/M07 A2978 RMK A01 T01701066  RH  019%=      5-min Rain = 0
KLE1 091601Z 28011KT 17/M07 A2978 RMK A01 T01701067  RH  019%=      5-min Rain = 0
KLE1 091602Z 30013KT 17/M07 A2978 RMK A01 T01711066  RH  019%=      5-min Rain = 0
KLE1 091603Z 28011KT 17/M07 A2978 RMK A01 T01711068  RH  019%=      5-min Rain = 0
KLE1 091604Z 29011KT 17/M07 A2978 RMK A01 T01711065  RH  019%=      5-min Rain = 0
KLE1 091605Z 29011KT 17/M07 A2978 RMK A01 T01721066  RH  019%=      5-min Rain = 0
KLE1 091606Z 29012KT 17/M07 A2978 RMK A01 T01711067  RH  019%=      5-min Rain = 0
KLE1 091607Z 28012KT 17/M07 A2978 RMK A01 T01711068  RH  019%=      5-min Rain = 0
KLE1 091608Z 28010KT 17/M07 A2978 RMK A01 T01731067  RH  019%=      5-min Rain = 0
KLE1 091609Z 28009KT 17/M07 A2978 RMK A01 T01731067  RH  019%=      5-min Rain = 0
KLE1 091610Z 29008KT 17/M06 A2978 RMK A01 T01741064  RH  019%=      5-min Rain = 0
KLE1 091611Z 28013KT 18/M07 A2978 RMK A01 T01781065  RH  019%=      5-min Rain = 0
KLE1 091612Z 29013KT 18/M07 A2978 RMK A01 T01801070  RH  018%=      5-min Rain = 0
KLE1 091613Z 29012KT 18/M07 A2978 RMK A01 T01801071  RH  017%=      5-min Rain = 0
KLE1 091614Z 29010KT 18/M07 A2978 RMK A01 T01801070  RH  018%=      5-min Rain = 0
KLE1 091615Z 29010KT 18/M07 A2978 RMK A01 T01791069  RH  018%=      5-min Rain = 0
KLE1 091616Z 30013KT 18/M07 A2978 RMK A01 T01791068  RH  018%=      5-min Rain = 0
KLE1 091617Z 29010KT 18/M07 A2978 RMK A01 T01801068  RH  018%=      5-min Rain = 0
KLE1 091618Z 29011KT 18/M07 A2978 RMK A01 T01831067  RH  018%=      5-min Rain = 0
KLE1 091619Z 29010KT 19/M07 A2978 RMK A01 T01851067  RH  017%=      5-min Rain = 0
KLE1 091620Z 29010KT 19/M07 A2979 RMK A01 T01851069  RH  017%=      5-min Rain = 0
KLE1 091621Z 29010KT 18/M07 A2979 RMK A01 T01841071  RH  017%=      5-min Rain = 0
KLE1 091622Z 29009KT 18/M07 A2979 RMK A01 T01841072  RH  017%=      5-min Rain = 0
KLE1 091623Z 29011KT 18/M07 A2979 RMK A01 T01841070  RH  017%=      5-min Rain = 0
KLE1 091624Z 30010KT 18/M07 A2979 RMK A01 T01841070  RH  017%=      5-min Rain = 0
KLE1 091625Z 29011KT 18/M07 A2979 RMK A01 T01831070  RH  017%=      5-min Rain = 0
KLE1 091626Z 30010KT 18/M07 A2979 RMK A01 T01831069  RH  017%=      5-min Rain = 0
KLE1 091627Z 29010KT 18/M07 A2979 RMK A01 T01831069  RH  017%=      5-min Rain = 0
KLE1 091628Z 30010KT 18/M07 A2979 RMK A01 T01831070  RH  017%=      5-min Rain = 0
KLE1 091629Z 30009KT 18/M07 A2979 RMK A01 T01831069  RH  017%=      5-min Rain = 0
KLE1 091630Z 30011KT 18/M07 A2979 RMK A01 T01841068  RH  017%=      5-min Rain = 0
KLE1 091631Z 29011KT 19/M07 A2979 RMK A01 T01861069  RH  017%=      5-min Rain = 0
KLE1 091632Z 29011KT 19/M07 A2979 RMK A01 T01861068  RH  017%=      5-min Rain = 0
KLE1 091633Z 30010KT 19/M07 A2979 RMK A01 T01861068  RH  017%=      5-min Rain = 0
KLE1 091634Z 30009KT 19/M07 A2979 RMK A01 T01851068  RH  017%=      5-min Rain = 0
KLE1 091635Z 29010KT 19/M07 A2979 RMK A01 T01851067  RH  017%=      5-min Rain = 0
KLE1 091636Z 28011KT 19/M07 A2979 RMK A01 T01871067  RH  017%=      5-min Rain = 0
KLE1 091637Z 30011KT 19/M07 A2979 RMK A01 T01901066  RH  017%=      5-min Rain = 0
KLE1 091638Z 29011KT 19/M07 A2979 RMK A01 T01921067  RH  017%=      5-min Rain = 0
KLE1 091639Z 28012KT 19/M07 A2979 RMK A01 T01921068  RH  017%=      5-min Rain = 0
KLE1 091640Z 28009KT 19/M07 A2979 RMK A01 T01911069  RH  017%=      5-min Rain = 0
KLE1 091641Z 28010KT 19/M07 A2979 RMK A01 T01921065  RH  017%=      5-min Rain = 0
KLE1 091642Z 28009KT 19/M07 A2979 RMK A01 T01941068  RH  016%=      5-min Rain = 0
KLE1 091643Z 29009KT 19/M07 A2979 RMK A01 T01941067  RH  016%=      5-min Rain = 0
KLE1 091644Z 29008KT 20/M07 A2979 RMK A01 T01951066  RH  016%=      5-min Rain = 0
KLE1 091645Z 28007KT 20/M07 A2979 RMK A01 T01961067  RH  016%=      5-min Rain = 0
KLE1 091646Z 28009KT 20/M07 A2979 RMK A01 T01961066  RH  016%=      5-min Rain = 0
KLE1 091647Z 29011KT 20/M07 A2979 RMK A01 T01971066  RH  016%=      5-min Rain = 0
KLE1 091648Z 30009KT 20/M07 A2979 RMK A01 T01971067  RH  016%=      5-min Rain = 0
KLE1 091649Z 29008KT 20/M07 A2979 RMK A01 T01981068  RH  016%=      5-min Rain = 0
KLE1 091650Z 31008KT 20/M07 A2979 RMK A01 T01971068  RH  016%=      5-min Rain = 0
KLE1 091651Z 30008KT 20/M07 A2979 RMK A01 T01981065  RH  016%=      5-min Rain = 0
KLE1 091652Z 29009KT 20/M07 A2978 RMK A01 T01991066  RH  016%=      5-min Rain = 0
KLE1 091653Z 29008KT 20/M07 A2978 RMK A01 T02001066  RH  016%=      5-min Rain = 0
KLE1 091654Z 29007KT 20/M06 A2978 RMK A01 T02011064  RH  016%=      5-min Rain = 0
KLE1 091655Z 30009KT 20/M06 A2978 RMK A01 T02031063  RH  016%=      5-min Rain = 0
KLE1 091656Z 30008KT 21/M07 A2978 RMK A01 T02051066  RH  016%=      5-min Rain = 0
KLE1 091657Z 31010KT 21/M06 A2978 RMK A01 T02051063  RH  016%=      5-min Rain = 0
KLE1 091658Z 28009KT 21/M06 A2978 RMK A01 T02071064  RH  016%=      5-min Rain = 0
KLE1 091659Z 29008KT 21/M07 A2978 RMK A01 T02081065  RH  015%=      5-min Rain = 0
KLE1 091700Z 29010KT 21/M07 A2978 RMK A01 T02081065  RH  015%=      5-min Rain = 0
KLE1 091701Z 30009KT 21/M07 A2978 RMK A01 T02091065  RH  015%=      5-min Rain = 0
KLE1 091702Z 30009KT 21/M06 A2978 RMK A01 T02101064  RH  015%=      5-min Rain = 0
KLE1 091703Z 29009KT 21/M07 A2978 RMK A01 T02111067  RH  015%=      5-min Rain = 0
KLE1 091704Z 29007KT 21/M07 A2978 RMK A01 T02111066  RH  015%=      5-min Rain = 0
KLE1 091705Z 29008KT 21/M07 A2978 RMK A01 T02111065  RH  015%=      5-min Rain = 0
KLE1 091706Z 29009KT 21/M06 A2978 RMK A01 T02121063  RH  015%=      5-min Rain = 0
KLE1 091707Z 28008KT 21/M07 A2979 RMK A01 T02121066  RH  015%=      5-min Rain = 0
KLE1 091708Z 28009KT 21/M06 A2979 RMK A01 T02111064  RH  015%=      5-min Rain = 0
KLE1 091709Z 28009KT 21/M07 A2978 RMK A01 T02141066  RH  015%=      5-min Rain = 0
KLE1 091710Z 27008KT 22/M07 A2978 RMK A01 T02151066  RH  015%=      5-min Rain = 0
KLE1 091711Z 27009KT 22/M06 A2978 RMK A01 T02161063  RH  015%=      5-min Rain = 0
KLE1 091712Z 27008KT 22/M07 A2978 RMK A01 T02171065  RH  015%=      5-min Rain = 0
KLE1 091713Z 29007KT 22/M06 A2978 RMK A01 T02181064  RH  015%=      5-min Rain = 0
KLE1 091714Z 28009KT 22/M07 A2978 RMK A01 T02201067  RH  014%=      5-min Rain = 0
KLE1 091715Z 28009KT 22/M07 A2978 RMK A01 T02221069  RH  014%=      5-min Rain = 0
KLE1 091716Z 29007KT 22/M07 A2978 RMK A01 T02221069  RH  014%=      5-min Rain = 0
KLE1 091717Z 29007KT 22/M07 A2978 RMK A01 T02211068  RH  014%=      5-min Rain = 0
KLE1 091718Z 29007KT 22/M07 A2978 RMK A01 T02211068  RH  014%=      5-min Rain = 0
KLE1 091719Z 32007KT 22/M07 A2978 RMK A01 T02221068  RH  014%=      5-min Rain = 0
KLE1 091720Z 31004KT 22/M07 A2978 RMK A01 T02201070  RH  014%=      5-min Rain = 0
KLE1 091721Z 30005KT 22/M07 A2978 RMK A01 T02201066  RH  014%=      5-min Rain = 0
KLE1 091722Z 31006KT 22/M07 A2978 RMK A01 T02211065  RH  014%=      5-min Rain = 0
KLE1 091723Z 28006KT 22/M07 A2978 RMK A01 T02231067  RH  014%=      5-min Rain = 0
KLE1 091724Z 28005KT 22/M07 A2978 RMK A01 T02221068  RH  014%=      5-min Rain = 0
KLE1 091725Z 28005KT 22/M07 A2978 RMK A01 T02221067  RH  014%=      5-min Rain = 0
KLE1 091726Z 28003KT 22/M07 A2978 RMK A01 T02221069  RH  014%=      5-min Rain = 0
KLE1 091727Z 29005KT 22/M07 A2978 RMK A01 T02221066  RH  014%=      5-min Rain = 0
KLE1 091728Z 30005KT 23/M07 A2977 RMK A01 T02251065  RH  014%=      5-min Rain = 0
KLE1 091729Z 31005KT 23/M07 A2977 RMK A01 T02271068  RH  013%=      5-min Rain = 0
KLE1 091730Z 31006KT 23/M07 A2977 RMK A01 T02291067  RH  013%=      5-min Rain = 0
KLE1 091731Z 30005KT 23/M07 A2977 RMK A01 T02301066  RH  013%=      5-min Rain = 0
KLE1 091732Z 31007KT 23/M07 A2977 RMK A01 T02341068  RH  013%=      5-min Rain = 0
KLE1 091733Z 34006KT 24/M07 A2977 RMK A01 T02371069  RH  012%=      5-min Rain = 0
KLE1 091734Z 35008KT 24/M07 A2977 RMK A01 T02411074  RH  012%=      5-min Rain = 0
KLE1 091735Z 33007KT 24/M08 A2977 RMK A01 T02421081  RH  011%=      5-min Rain = 0
KLE1 091736Z 34010KT 24/M08 A2977 RMK A01 T02421081  RH  011%=      5-min Rain = 0
KLE1 091737Z 34006KT 24/M08 A2977 RMK A01 T02411084  RH  011%=      5-min Rain = 0
KLE1 091738Z 31008KT 24/M08 A2977 RMK A01 T02421079  RH  011%=      5-min Rain = 0
KLE1 091739Z 33010KT 25/M08 A2977 RMK A01 T02451078  RH  011%=      5-min Rain = 0
KLE1 091740Z 33009KT 25/M08 A2977 RMK A01 T02461081  RH  011%=      5-min Rain = 0
KLE1 091741Z 33009KT 25/M08 A2977 RMK A01 T02461080  RH  011%=      5-min Rain = 0
KLE1 091742Z 33008KT 25/M08 A2977 RMK A01 T02461082  RH  011%=      5-min Rain = 0
KLE1 091743Z 33008KT 24/M08 A2977 RMK A01 T02441083  RH  011%=      5-min Rain = 0
KLE1 091744Z 32006KT 25/M08 A2977 RMK A01 T02451080  RH  011%=      5-min Rain = 0
KLE1 091745Z 31009KT 25/M08 A2977 RMK A01 T02461080  RH  011%=      5-min Rain = 0
KLE1 091746Z 30009KT 25/M08 A2977 RMK A01 T02461082  RH  011%=      5-min Rain = 0
KLE1 091747Z 30007KT 25/M08 A2977 RMK A01 T02461080  RH  011%=      5-min Rain = 0
KLE1 091748Z 32007KT 25/M08 A2977 RMK A01 T02481080  RH  011%=      5-min Rain = 0
KLE1 091749Z 33006KT 25/M08 A2977 RMK A01 T02481080  RH  011%=      5-min Rain = 0
KLE1 091750Z 34004KT 25/M08 A2977 RMK A01 T02481081  RH  011%=      5-min Rain = 0
KLE1 091751Z 33003KT 25/M08 A2977 RMK A01 T02471082  RH  011%=      5-min Rain = 0
KLE1 091752Z 28004KT 25/M08 A2977 RMK A01 T02471083  RH  011%=      5-min Rain = 0
KLE1 091753Z 32005KT 25/M08 A2977 RMK A01 T02471082  RH  011%=      5-min Rain = 0
KLE1 091754Z 30007KT 25/M08 A2976 RMK A01 T02481081  RH  011%=      5-min Rain = 0
KLE1 091755Z 34007KT 25/M08 A2976 RMK A01 T02501082  RH  010%=      5-min Rain = 0
KLE1 091756Z 35007KT 25/M09 A2976 RMK A01 T02521086  RH  010%=      5-min Rain = 0
KLE1 091757Z 35007KT 25/M09 A2976 RMK A01 T02531086  RH  010%=      5-min Rain = 0
KLE1 091758Z 36005KT 25/M09 A2976 RMK A01 T02541085  RH  010%=      5-min Rain = 0
KLE1 091759Z 34005KT 25/M09 A2976 RMK A01 T02541085  RH  010%=      5-min Rain = 0
KLE1 091800Z 35004KT 25/M09 A2976 RMK A01 T02541085  RH  010%=      5-min Rain = 0
KLE1 091801Z 00003KT 25/M09 A2976 RMK A01 T02541086  RH  010%=      5-min Rain = 0
KLE1 091802Z 33006KT 26/M08 A2976 RMK A01 T02551081  RH  010%=      5-min Rain = 0
KLE1 091803Z 32004KT 26/M08 A2976 RMK A01 T02581084  RH  010%=      5-min Rain = 0
KLE1 091804Z 32007KT 26/M09 A2976 RMK A01 T02571086  RH  010%=      5-min Rain = 0
KLE1 091805Z 34007KT 26/M09 A2976 RMK A01 T02561086  RH  010%=      5-min Rain = 0
KLE1 091806Z 34006KT 26/M08 A2976 RMK A01 T02571083  RH  010%=      5-min Rain = 0
KLE1 091807Z 34005KT 26/M08 A2976 RMK A01 T02611082  RH  010%=      5-min Rain = 0
KLE1 091808Z 30008KT 26/M08 A2976 RMK A01 T02621084  RH  010%=      5-min Rain = 0
KLE1 091809Z 30005KT 26/M09 A2976 RMK A01 T02601086  RH  010%=      5-min Rain = 0
KLE1 091810Z 32004KT 26/M08 A2976 RMK A01 T02581084  RH  010%=      5-min Rain = 0
KLE1 091811Z 33004KT 26/M09 A2976 RMK A01 T02581087  RH  010%=      5-min Rain = 0
KLE1 091812Z 00003KT 26/M09 A2976 RMK A01 T02581086  RH  010%=      5-min Rain = 0
KLE1 091813Z 36003KT 26/M09 A2976 RMK A01 T02601087  RH  009%=      5-min Rain = 0
KLE1 091814Z 34004KT 26/M09 A2976 RMK A01 T02611085  RH  010%=      5-min Rain = 0
KLE1 091815Z 33008KT 26/M09 A2976 RMK A01 T02631086  RH  009%=      5-min Rain = 0
KLE1 091816Z 33006KT 27/M08 A2976 RMK A01 T02651084  RH  009%=      5-min Rain = 0
KLE1 091817Z 36006KT 27/M09 A2976 RMK A01 T02651087  RH  009%=      5-min Rain = 0
KLE1 091818Z 02004KT 26/M09 A2976 RMK A01 T02621091  RH  009%=      5-min Rain = 0
KLE1 091819Z 36004KT 26/M09 A2976 RMK A01 T02601085  RH  010%=      5-min Rain = 0
KLE1 091820Z 34011KT 26/M08 A2976 RMK A01 T02631084  RH  010%=      5-min Rain = 0
KLE1 091821Z 35012KT 27/M09 A2976 RMK A01 T02651086  RH  009%=      5-min Rain = 0
KLE1 091822Z 34010KT 27/M09 A2976 RMK A01 T02661087  RH  009%=      5-min Rain = 0
KLE1 091823Z 34007KT 26/M09 A2976 RMK A01 T02641088  RH  009%=      5-min Rain = 0
KLE1 091824Z 34009KT 26/M09 A2975 RMK A01 T02641085  RH  009%=      5-min Rain = 0
KLE1 091825Z 33008KT 27/M09 A2976 RMK A01 T02661086  RH  009%=      5-min Rain = 0
KLE1 091826Z 34006KT 27/M09 A2975 RMK A01 T02651087  RH  009%=      5-min Rain = 0
KLE1 091827Z 31005KT 26/M09 A2975 RMK A01 T02631088  RH  009%=      5-min Rain = 0
KLE1 091828Z 31006KT 26/M09 A2975 RMK A01 T02631087  RH  009%=      5-min Rain = 0
KLE1 091829Z 30007KT 26/M09 A2975 RMK A01 T02631086  RH  009%=      5-min Rain = 0
KLE1 091830Z 29006KT 26/M09 A2975 RMK A01 T02621088  RH  009%=      5-min Rain = 0
KLE1 091831Z 29005KT 26/M09 A2975 RMK A01 T02621086  RH  009%=      5-min Rain = 0
KLE1 091832Z 29005KT 26/M09 A2975 RMK A01 T02621087  RH  009%=      5-min Rain = 0
KLE1 091833Z 28004KT 26/M09 A2975 RMK A01 T02621090  RH  009%=      5-min Rain = 0
KLE1 091834Z 30004KT 26/M09 A2975 RMK A01 T02591090  RH  009%=      5-min Rain = 0
KLE1 091835Z 33002KT 26/M09 A2975 RMK A01 T02591087  RH  010%=      5-min Rain = 0
KLE1 091836Z 32002KT 26/M09 A2975 RMK A01 T02611085  RH  010%=      5-min Rain = 0
KLE1 091837Z 03004KT 26/M09 A2975 RMK A01 T02631085  RH  009%=      5-min Rain = 0
KLE1 091838Z 06003KT 27/M09 A2975 RMK A01 T02661087  RH  009%=      5-min Rain = 0
KLE1 091839Z 08003KT 27/M09 A2975 RMK A01 T02671090  RH  009%=      5-min Rain = 0
KLE1 091840Z 31008KT 27/M09 A2975 RMK A01 T02681090  RH  009%=      5-min Rain = 0
KLE1 091841Z 31007KT 27/M09 A2975 RMK A01 T02701085  RH  009%=      5-min Rain = 0
KLE1 091842Z 33005KT 27/M08 A2975 RMK A01 T02731084  RH  009%=      5-min Rain = 0
KLE1 091843Z 32007KT 27/M09 A2975 RMK A01 T02731088  RH  009%=      5-min Rain = 0
KLE1 091844Z 32003KT 27/M09 A2975 RMK A01 T02691091  RH  009%=      5-min Rain = 0
KLE1 091845Z 01004KT 27/M09 A2975 RMK A01 T02671090  RH  009%=      5-min Rain = 0
KLE1 091846Z 35005G12KT 27/M09 A2975 RMK A01 T02661091  RH  009%=      5-min Rain = 0
KLE1 091847Z 35006KT 27/M09 A2975 RMK A01 T02701089  RH  009%=      5-min Rain = 0
KLE1 091848Z 35010KT 28/M09 A2975 RMK A01 T02761092  RH  008%=      5-min Rain = 0
KLE1 091849Z 01012KT 28/M10 A2975 RMK A01 T02781097  RH  008%=      5-min Rain = 0
KLE1 091850Z 02012KT 28/M10 A2975 RMK A01 T02781102  RH  008%=      5-min Rain = 0
KLE1 091851Z 02011KT 28/M10 A2975 RMK A01 T02761103  RH  008%=      5-min Rain = 0
KLE1 091852Z 01012KT 28/M10 A2975 RMK A01 T02751101  RH  008%=      5-min Rain = 0
KLE1 091853Z 00009KT 27/M10 A2975 RMK A01 T02741102  RH  008%=      5-min Rain = 0
KLE1 091854Z 00008KT 27/M10 A2975 RMK A01 T02731099  RH  008%=      5-min Rain = 0
KLE1 091855Z 35009KT 28/M10 A2975 RMK A01 T02761097  RH  008%=      5-min Rain = 0
KLE1 091856Z 36007KT 28/M10 A2975 RMK A01 T02781098  RH  008%=      5-min Rain = 0
KLE1 091857Z 35006KT 28/M10 A2974 RMK A01 T02781099  RH  008%=      5-min Rain = 0
KLE1 091858Z 03005KT 28/M10 A2974 RMK A01 T02761099  RH  008%=      5-min Rain = 0
KLE1 091859Z 01010KT 28/M10 A2974 RMK A01 T02751101  RH  008%=      5-min Rain = 0
KLE1 091900Z 35011KT 27/M10 A2974 RMK A01 T02741103  RH  008%=      5-min Rain = 0
KLE1 091901Z 35011KT 28/M10 A2974 RMK A01 T02751103  RH  008%=      5-min Rain = 0
KLE1 091902Z 01009KT 27/M10 A2974 RMK A01 T02721103  RH  008%=      5-min Rain = 0
KLE1 091903Z 36011KT 27/M10 A2974 RMK A01 T02721101  RH  008%=      5-min Rain = 0
KLE1 091904Z 32009KT 28/M10 A2974 RMK A01 T02761100  RH  008%=      5-min Rain = 0
KLE1 091905Z 33010KT 27/M11 A2974 RMK A01 T02741106  RH  008%=      5-min Rain = 0
KLE1 091906Z 33007KT 27/M11 A2974 RMK A01 T02711105  RH  008%=      5-min Rain = 0
KLE1 091907Z 34007KT 27/M11 A2974 RMK A01 T02711105  RH  008%=      5-min Rain = 0
KLE1 091908Z 33011KT 27/M10 A2974 RMK A01 T02721101  RH  008%=      5-min Rain = 0
KLE1 091909Z 33011KT 28/M10 A2974 RMK A01 T02751102  RH  008%=      5-min Rain = 0
KLE1 091910Z 35012KT 28/M10 A2974 RMK A01 T02771100  RH  008%=      5-min Rain = 0
KLE1 091911Z 35011KT 28/M10 A2974 RMK A01 T02791102  RH  008%=      5-min Rain = 0
KLE1 091912Z 34010KT 28/M10 A2974 RMK A01 T02771104  RH  007%=      5-min Rain = 0
KLE1 091913Z 34012KT 28/M10 A2974 RMK A01 T02751102  RH  008%=      5-min Rain = 0
KLE1 091914Z 35008KT 27/M10 A2974 RMK A01 T02741103  RH  008%=      5-min Rain = 0
KLE1 091915Z 35006KT 27/M10 A2974 RMK A01 T02741102  RH  008%=      5-min Rain = 0
KLE1 091916Z 33004KT 27/M10 A2974 RMK A01 T02731103  RH  008%=      5-min Rain = 0
KLE1 091917Z 35010KT 27/M10 A2974 RMK A01 T02721103  RH  008%=      5-min Rain = 0
KLE1 091918Z 33012KT 27/M10 A2974 RMK A01 T02721099  RH  008%=      5-min Rain = 0
KLE1 091919Z 33011KT 28/M10 A2974 RMK A01 T02751100  RH  008%=      5-min Rain = 0
KLE1 091920Z 36011KT 28/M10 A2974 RMK A01 T02751098  RH  008%=      5-min Rain = 0
KLE1 091921Z 36011KT 28/M10 A2974 RMK A01 T02771096  RH  008%=      5-min Rain = 0
KLE1 091922Z 35013KT 28/M10 A2974 RMK A01 T02801098  RH  008%=      5-min Rain = 0
KLE1 091923Z 34013KT 28/M10 A2974 RMK A01 T02801099  RH  008%=      5-min Rain = 0
KLE1 091924Z 35011KT 28/M10 A2974 RMK A01 T02761102  RH  008%=      5-min Rain = 0
KLE1 091925Z 34009KT 27/M10 A2974 RMK A01 T02741103  RH  008%=      5-min Rain = 0
KLE1 091926Z 01007KT 27/M10 A2974 RMK A01 T02721103  RH  008%=      5-min Rain = 0
KLE1 091927Z 36007KT 27/M10 A2974 RMK A01 T02721102  RH  008%=      5-min Rain = 0
KLE1 091928Z 35012KT 27/M10 A2973 RMK A01 T02741101  RH  008%=      5-min Rain = 0
KLE1 091929Z 34013KT 28/M10 A2974 RMK A01 T02781101  RH  008%=      5-min Rain = 0
KLE1 091930Z 34010KT 28/M10 A2974 RMK A01 T02761104  RH  008%=      5-min Rain = 0
KLE1 091931Z 33009KT 27/M11 A2974 RMK A01 T02721106  RH  008%=      5-min Rain = 0
KLE1 091932Z 34013KT 27/M10 A2973 RMK A01 T02731103  RH  008%=      5-min Rain = 0
KLE1 091933Z 33012KT 28/M11 A2973 RMK A01 T02751108  RH  007%=      5-min Rain = 0
KLE1 091934Z 34012KT 28/M11 A2973 RMK A01 T02751106  RH  007%=      5-min Rain = 0
KLE1 091935Z 33011KT 28/M11 A2973 RMK A01 T02771107  RH  007%=      5-min Rain = 0
KLE1 091936Z 35015KT 28/M11 A2973 RMK A01 T02781105  RH  007%=      5-min Rain = 0
KLE1 091937Z 36012KT 28/M11 A2973 RMK A01 T02781108  RH  007%=      5-min Rain = 0
KLE1 091938Z 01013KT 28/M11 A2973 RMK A01 T02761111  RH  007%=      5-min Rain = 0
KLE1 091939Z 36013KT 27/M11 A2973 RMK A01 T02731112  RH  007%=      5-min Rain = 0
KLE1 091940Z 36014KT 27/M11 A2973 RMK A01 T02731110  RH  007%=      5-min Rain = 0
KLE1 091941Z 36011KT 27/M11 A2973 RMK A01 T02721109  RH  007%=      5-min Rain = 0
KLE1 091942Z 36011KT 27/M11 A2973 RMK A01 T02721107  RH  008%=      5-min Rain = 0
KLE1 091943Z 35008KT 27/M11 A2973 RMK A01 T02711106  RH  008%=      5-min Rain = 0
KLE1 091944Z 35012KT 27/M11 A2973 RMK A01 T02721106  RH  008%=      5-min Rain = 0
KLE1 091945Z 35010KT 27/M11 A2973 RMK A01 T02721106  RH  008%=      5-min Rain = 0
KLE1 091946Z 01008KT 27/M11 A2973 RMK A01 T02721105  RH  008%=      5-min Rain = 0
KLE1 091947Z 36007KT 27/M11 A2973 RMK A01 T02731106  RH  008%=      5-min Rain = 0
KLE1 091948Z 36009KT 27/M11 A2973 RMK A01 T02731106  RH  008%=      5-min Rain = 0
KLE1 091949Z 36015KT 27/M10 A2973 RMK A01 T02741104  RH  008%=      5-min Rain = 0
KLE1 091950Z 35014KT 28/M11 A2973 RMK A01 T02751105  RH  008%=      5-min Rain = 0
KLE1 091951Z 35013KT 28/M10 A2973 RMK A01 T02751101  RH  008%=      5-min Rain = 0
KLE1 091952Z 36011G16KT 28/M10 A2973 RMK A01 T02771101  RH  008%=      5-min Rain = 0
KLE1 091953Z 35012KT 28/M10 A2973 RMK A01 T02771102  RH  008%=      5-min Rain = 0
KLE1 091954Z 34012KT 28/M10 A2973 RMK A01 T02811099  RH  008%=      5-min Rain = 0
KLE1 091955Z 34012KT 28/M10 A2973 RMK A01 T02821102  RH  007%=      5-min Rain = 0
KLE1 091956Z 34013KT 28/M10 A2973 RMK A01 T02781104  RH  007%=      5-min Rain = 0
KLE1 091957Z 35010KT 28/M10 A2973 RMK A01 T02781102  RH  008%=      5-min Rain = 0
KLE1 091958Z 00010KT 28/M10 A2973 RMK A01 T02791100  RH  008%=      5-min Rain = 0
KLE1 091959Z 01010KT 28/M10 A2972 RMK A01 T02791102  RH  008%=      5-min Rain = 0
KLE1 092000Z 36009KT 28/M10 A2972 RMK A01 T02791099  RH  008%=      5-min Rain = 0
KLE1 092001Z 00010KT 28/M10 A2972 RMK A01 T02811098  RH  008%=      5-min Rain = 0
KLE1 092002Z 01010KT 28/M10 A2972 RMK A01 T02821101  RH  007%=      5-min Rain = 0
KLE1 092003Z 01014KT 28/M10 A2972 RMK A01 T02831098  RH  008%=      5-min Rain = 0
KLE1 092004Z 02011KT 28/M10 A2972 RMK A01 T02831102  RH  007%=      5-min Rain = 0
KLE1 092005Z 02010KT 28/M10 A2972 RMK A01 T02831102  RH  007%=      5-min Rain = 0
KLE1 092006Z 01013KT 28/M10 A2972 RMK A01 T02801103  RH  007%=      5-min Rain = 0
KLE1 092007Z 00009KT 28/M10 A2972 RMK A01 T02781103  RH  007%=      5-min Rain = 0
KLE1 092008Z 01010KT 28/M10 A2972 RMK A01 T02771101  RH  008%=      5-min Rain = 0
KLE1 092009Z 02012KT 28/M10 A2972 RMK A01 T02791101  RH  008%=      5-min Rain = 0
KLE1 092010Z 01012G17KT 28/M10 A2972 RMK A01 T02791102  RH  007%=      5-min Rain = 0
KLE1 092011Z 01016KT 28/M10 A2972 RMK A01 T02781103  RH  007%=      5-min Rain = 0
KLE1 092012Z 02014KT 28/M11 A2972 RMK A01 T02751106  RH  007%=      5-min Rain = 0
KLE1 092013Z 02011KT 27/M11 A2972 RMK A01 T02701110  RH  007%=      5-min Rain = 0
KLE1 092014Z 03012KT 27/M10 A2972 RMK A01 T02681103  RH  008%=      5-min Rain = 0
KLE1 092015Z 01012KT 27/M10 A2972 RMK A01 T02721100  RH  008%=      5-min Rain = 0
KLE1 092016Z 35010KT 27/M10 A2972 RMK A01 T02741103  RH  008%=      5-min Rain = 0
KLE1 092017Z 34008KT 27/M11 A2972 RMK A01 T02741105  RH  008%=      5-min Rain = 0
KLE1 092018Z 35008G13KT 27/M11 A2972 RMK A01 T02721107  RH  008%=      5-min Rain = 0
KLE1 092019Z 02016KT 27/M11 A2972 RMK A01 T02721107  RH  008%=      5-min Rain = 0
KLE1 092020Z 01015KT 27/M11 A2972 RMK A01 T02731107  RH  007%=      5-min Rain = 0
KLE1 092021Z 00015KT 27/M11 A2972 RMK A01 T02731107  RH  007%=      5-min Rain = 0
KLE1 092022Z 01013KT 27/M11 A2972 RMK A01 T02731110  RH  007%=      5-min Rain = 0
KLE1 092023Z 02013KT 27/M11 A2972 RMK A01 T02721108  RH  007%=      5-min Rain = 0
KLE1 092024Z 02012KT 27/M11 A2972 RMK A01 T02721106  RH  008%=      5-min Rain = 0
KLE1 092025Z 01011KT 27/M11 A2972 RMK A01 T02721105  RH  008%=      5-min Rain = 0
KLE1 092026Z 36010KT 27/M11 A2972 RMK A01 T02731106  RH  008%=      5-min Rain = 0
KLE1 092027Z 00009KT 27/M11 A2972 RMK A01 T02731106  RH  008%=      5-min Rain = 0
KLE1 092028Z 34006KT 27/M11 A2973 RMK A01 T02731106  RH  008%=      5-min Rain = 0
KLE1 092029Z 01003KT 27/M11 A2973 RMK A01 T02731107  RH  007%=      5-min Rain = 0
KLE1 092030Z 03004KT 27/M10 A2973 RMK A01 T02731104  RH  008%=      5-min Rain = 0
KLE1 092031Z 05006KT 27/M11 A2972 RMK A01 T02731105  RH  008%=      5-min Rain = 0
KLE1 092032Z 35006G11KT 27/M10 A2972 RMK A01 T02731102  RH  008%=      5-min Rain = 0
KLE1 092033Z 00012KT 27/M10 A2972 RMK A01 T02741103  RH  008%=      5-min Rain = 0
KLE1 092034Z 02013KT 27/M10 A2972 RMK A01 T02741104  RH  008%=      5-min Rain = 0
KLE1 092035Z 36013KT 28/M10 A2972 RMK A01 T02751101  RH  008%=      5-min Rain = 0
KLE1 092036Z 01014KT 28/M10 A2972 RMK A01 T02771103  RH  008%=      5-min Rain = 0
KLE1 092037Z 00011KT 28/M11 A2973 RMK A01 T02751106  RH  007%=      5-min Rain = 0
KLE1 092038Z 02010KT 27/M10 A2973 RMK A01 T02731103  RH  008%=      5-min Rain = 0
KLE1 092039Z 04011KT 28/M10 A2972 RMK A01 T02761101  RH  008%=      5-min Rain = 0
KLE1 092040Z 00009KT 27/M10 A2972 RMK A01 T02731103  RH  008%=      5-min Rain = 0
KLE1 092041Z 36011KT 27/M10 A2973 RMK A01 T02721104  RH  008%=      5-min Rain = 0
KLE1 092042Z 01009KT 27/M10 A2973 RMK A01 T02711104  RH  008%=      5-min Rain = 0
KLE1 092043Z 01014KT 27/M11 A2973 RMK A01 T02711106  RH  008%=      5-min Rain = 0
KLE1 092044Z 00011KT 27/M11 A2973 RMK A01 T02701106  RH  008%=      5-min Rain = 0
KLE1 092045Z 01008KT 27/M11 A2973 RMK A01 T02701109  RH  007%=      5-min Rain = 0
KLE1 092046Z 01009G14KT 27/M11 A2973 RMK A01 T02691109  RH  008%=      5-min Rain = 0
KLE1 092047Z 35011KT 27/M11 A2973 RMK A01 T02711106  RH  008%=      5-min Rain = 0
KLE1 092048Z 35011KT 27/M11 A2973 RMK A01 T02741108  RH  007%=      5-min Rain = 0
KLE1 092049Z 34010KT 27/M11 A2973 RMK A01 T02731112  RH  007%=      5-min Rain = 0
KLE1 092050Z 34010KT 27/M11 A2973 RMK A01 T02711114  RH  007%=      5-min Rain = 0
KLE1 092051Z 36011KT 27/M11 A2973 RMK A01 T02701108  RH  008%=      5-min Rain = 0
KLE1 092052Z 00013KT 27/M11 A2973 RMK A01 T02731105  RH  008%=      5-min Rain = 0
KLE1 092053Z 36012KT 27/M11 A2973 RMK A01 T02731109  RH  007%=      5-min Rain = 0
KLE1 092054Z 36009KT 27/M11 A2973 RMK A01 T02691111  RH  007%=      5-min Rain = 0
KLE1 092055Z 35011KT 27/M11 A2973 RMK A01 T02681107  RH  008%=      5-min Rain = 0
KLE1 092056Z 35014KT 27/M11 A2973 RMK A01 T02701106  RH  008%=      5-min Rain = 0
KLE1 092057Z 35010KT 27/M11 A2973 RMK A01 T02691107  RH  008%=      5-min Rain = 0
KLE1 092058Z 34008KT 27/M11 A2973 RMK A01 T02671107  RH  008%=      5-min Rain = 0
KLE1 092059Z 33006KT 27/M11 A2973 RMK A01 T02671107  RH  008%=      5-min Rain = 0
KLE1 092100Z 35011KT 27/M11 A2973 RMK A01 T02671108  RH  008%=      5-min Rain = 0
KLE1 092101Z 36011KT 27/M11 A2973 RMK A01 T02691105  RH  008%=      5-min Rain = 0
KLE1 092102Z 36006KT 27/M11 A2973 RMK A01 T02701110  RH  007%=      5-min Rain = 0
KLE1 092103Z 02009KT 27/M11 A2973 RMK A01 T02691107  RH  008%=      5-min Rain = 0
KLE1 092104Z 02011KT 27/M11 A2973 RMK A01 T02711105  RH  008%=      5-min Rain = 0
KLE1 092105Z 01008G14KT 27/M11 A2973 RMK A01 T02721107  RH  008%=      5-min Rain = 0
KLE1 092106Z 01009KT 27/M11 A2973 RMK A01 T02711107  RH  008%=      5-min Rain = 0
KLE1 092107Z 00010KT 27/M11 A2973 RMK A01 T02711106  RH  008%=      5-min Rain = 0
KLE1 092108Z 36008KT 27/M11 A2973 RMK A01 T02701109  RH  008%=      5-min Rain = 0
KLE1 092109Z 36008KT 27/M11 A2973 RMK A01 T02681110  RH  008%=      5-min Rain = 0
KLE1 092110Z 01007G12KT 27/M11 A2973 RMK A01 T02661109  RH  008%=      5-min Rain = 0
KLE1 092111Z 02007KT 27/M11 A2973 RMK A01 T02681106  RH  008%=      5-min Rain = 0
KLE1 092112Z 02005KT 27/M11 A2973 RMK A01 T02671109  RH  008%=      5-min Rain = 0
KLE1 092113Z 01007KT 27/M11 A2973 RMK A01 T02671106  RH  008%=      5-min Rain = 0
KLE1 092114Z 02012KT 27/M11 A2973 RMK A01 T02691106  RH  008%=      5-min Rain = 0
KLE1 092115Z 02010KT 27/M11 A2973 RMK A01 T02691107  RH  008%=      5-min Rain = 0
KLE1 092116Z 02007KT 27/M11 A2973 RMK A01 T02681107  RH  008%=      5-min Rain = 0
KLE1 092117Z 03007KT 27/M11 A2973 RMK A01 T02671110  RH  008%=      5-min Rain = 0
KLE1 092118Z 03010KT 27/M11 A2972 RMK A01 T02671106  RH  008%=      5-min Rain = 0
KLE1 092119Z 01011KT 27/M10 A2973 RMK A01 T02681102  RH  008%=      5-min Rain = 0
KLE1 092120Z 02012KT 27/M11 A2973 RMK A01 T02691105  RH  008%=      5-min Rain = 0
KLE1 092121Z 02007KT 27/M11 A2973 RMK A01 T02661107  RH  008%=      5-min Rain = 0
KLE1 092122Z 02005KT 27/M10 A2973 RMK A01 T02671103  RH  008%=      5-min Rain = 0
KLE1 092123Z 35008KT 27/M10 A2973 RMK A01 T02681102  RH  008%=      5-min Rain = 0
KLE1 092124Z 35012KT 27/M10 A2973 RMK A01 T02701103  RH  008%=      5-min Rain = 0
KLE1 092125Z 03011KT 27/M10 A2973 RMK A01 T02711100  RH  008%=      5-min Rain = 0
KLE1 092126Z 00011KT 27/M10 A2973 RMK A01 T02711101  RH  008%=      5-min Rain = 0
KLE1 092127Z 35015KT 27/M10 A2973 RMK A01 T02711102  RH  008%=      5-min Rain = 0
KLE1 092128Z 35013KT 27/M10 A2973 RMK A01 T02711104  RH  008%=      5-min Rain = 0
KLE1 092129Z 01012KT 27/M11 A2973 RMK A01 T02671105  RH  008%=      5-min Rain = 0
KLE1 092130Z 01012KT 27/M10 A2973 RMK A01 T02661104  RH  008%=      5-min Rain = 0
KLE1 092131Z 00013KT 27/M10 A2973 RMK A01 T02671104  RH  008%=      5-min Rain = 0
KLE1 092132Z 36012KT 27/M10 A2973 RMK A01 T02691102  RH  008%=      5-min Rain = 0
KLE1 092133Z 01014KT 27/M10 A2973 RMK A01 T02701103  RH  008%=      5-min Rain = 0
KLE1 092134Z 02014KT 27/M10 A2973 RMK A01 T02691104  RH  008%=      5-min Rain = 0
KLE1 092135Z 01011KT 27/M11 A2973 RMK A01 T02671105  RH  008%=      5-min Rain = 0
KLE1 092136Z 01012KT 27/M11 A2973 RMK A01 T02651105  RH  008%=      5-min Rain = 0
KLE1 092137Z 01016KT 27/M10 A2973 RMK A01 T02651102  RH  008%=      5-min Rain = 0
KLE1 092138Z 00012KT 27/M10 A2973 RMK A01 T02661101  RH  008%=      5-min Rain = 0
KLE1 092139Z 00013KT 27/M10 A2973 RMK A01 T02671102  RH  008%=      5-min Rain = 0
KLE1 092140Z 02013KT 27/M10 A2973 RMK A01 T02661104  RH  008%=      5-min Rain = 0
KLE1 092141Z 03010KT 27/M10 A2973 RMK A01 T02651104  RH  008%=      5-min Rain = 0
KLE1 092142Z 01011KT 27/M10 A2973 RMK A01 T02651102  RH  008%=      5-min Rain = 0
KLE1 092143Z 35009KT 27/M10 A2974 RMK A01 T02661100  RH  008%=      5-min Rain = 0
KLE1 092144Z 34012KT 27/M10 A2974 RMK A01 T02681101  RH  008%=      5-min Rain = 0
KLE1 092145Z 33010KT 27/M10 A2974 RMK A01 T02691101  RH  008%=      5-min Rain = 0
KLE1 092146Z 33011KT 27/M10 A2974 RMK A01 T02701101  RH  008%=      5-min Rain = 0
KLE1 092147Z 34009KT 27/M10 A2974 RMK A01 T02681103  RH  008%=      5-min Rain = 0
KLE1 092148Z 34009KT 27/M10 A2974 RMK A01 T02671101  RH  008%=      5-min Rain = 0
KLE1 092149Z 00013KT 27/M10 A2974 RMK A01 T02671101  RH  008%=      5-min Rain = 0
KLE1 092150Z 36013KT 27/M10 A2974 RMK A01 T02671102  RH  008%=      5-min Rain = 0
KLE1 092151Z 36013KT 27/M10 A2974 RMK A01 T02681101  RH  008%=      5-min Rain = 0
KLE1 092152Z 36014KT 27/M10 A2974 RMK A01 T02671102  RH  008%=      5-min Rain = 0
KLE1 092153Z 00014KT 27/M10 A2974 RMK A01 T02661104  RH  008%=      5-min Rain = 0
KLE1 092154Z 35012KT 27/M10 A2974 RMK A01 T02661104  RH  008%=      5-min Rain = 0
KLE1 092155Z 36011KT 26/M11 A2974 RMK A01 T02631106  RH  008%=      5-min Rain = 0
KLE1 092156Z 01013KT 26/M11 A2973 RMK A01 T02621105  RH  008%=      5-min Rain = 0
KLE1 092157Z 00011KT 26/M10 A2974 RMK A01 T02641104  RH  008%=      5-min Rain = 0
KLE1 092158Z 36011KT 26/M10 A2973 RMK A01 T02641104  RH  008%=      5-min Rain = 0
KLE1 092159Z 36008KT 26/M11 A2973 RMK A01 T02631105  RH  008%=      5-min Rain = 0
KLE1 092200Z 35009KT 26/M11 A2973 RMK A01 T02611108  RH  008%=      5-min Rain = 0
KLE1 092201Z 35011KT 26/M11 A2973 RMK A01 T02611105  RH  008%=      5-min Rain = 0
KLE1 092202Z 36009KT 26/M11 A2973 RMK A01 T02621105  RH  008%=      5-min Rain = 0
KLE1 092203Z 36008KT 26/M11 A2973 RMK A01 T02621105  RH  008%=      5-min Rain = 0
KLE1 092204Z 35007KT 26/M11 A2973 RMK A01 T02611107  RH  008%=      5-min Rain = 0
KLE1 092205Z 01007KT 26/M11 A2973 RMK A01 T02601105  RH  008%=      5-min Rain = 0
KLE1 092206Z 02009KT 26/M10 A2973 RMK A01 T02611102  RH  008%=      5-min Rain = 0
KLE1 092207Z 02008KT 26/M10 A2973 RMK A01 T02601104  RH  008%=      5-min Rain = 0
KLE1 092208Z 01009KT 26/M10 A2973 RMK A01 T02591103  RH  008%=      5-min Rain = 0
KLE1 092209Z 01011KT 26/M10 A2973 RMK A01 T02591103  RH  008%=      5-min Rain = 0
KLE1 092210Z 01009KT 26/M11 A2973 RMK A01 T02581105  RH  008%=      5-min Rain = 0
KLE1 092211Z 01006KT 26/M10 A2973 RMK A01 T02581104  RH  008%=      5-min Rain = 0
KLE1 092212Z 03009KT 26/M10 A2973 RMK A01 T02581101  RH  009%=      5-min Rain = 0
KLE1 092213Z 04009KT 26/M10 A2973 RMK A01 T02611101  RH  008%=      5-min Rain = 0
KLE1 092214Z 05008KT 26/M10 A2973 RMK A01 T02621102  RH  008%=      5-min Rain = 0
KLE1 092215Z 04010KT 27/M10 A2973 RMK A01 T02651099  RH  008%=      5-min Rain = 0
KLE1 092216Z 04008KT 27/M10 A2973 RMK A01 T02661104  RH  008%=      5-min Rain = 0
KLE1 092217Z 02006KT 26/M10 A2973 RMK A01 T02631104  RH  008%=      5-min Rain = 0
KLE1 092218Z 35008KT 26/M10 A2973 RMK A01 T02641103  RH  008%=      5-min Rain = 0
KLE1 092219Z 36008KT 26/M11 A2973 RMK A01 T02641105  RH  008%=      5-min Rain = 0
KLE1 092220Z 36008KT 26/M11 A2973 RMK A01 T02641105  RH  008%=      5-min Rain = 0
KLE1 092221Z 36008KT 26/M11 A2973 RMK A01 T02641105  RH  008%=      5-min Rain = 0
KLE1 092222Z 02007KT 27/M11 A2973 RMK A01 T02651105  RH  008%=      5-min Rain = 0
KLE1 092223Z 04006KT 26/M10 A2973 RMK A01 T02641104  RH  008%=      5-min Rain = 0
KLE1 092224Z 05006KT 26/M10 A2973 RMK A01 T02641104  RH  008%=      5-min Rain = 0
KLE1 092225Z 04005KT 26/M11 A2973 RMK A01 T02641106  RH  008%=      5-min Rain = 0
KLE1 092226Z 01007KT 26/M10 A2973 RMK A01 T02631104  RH  008%=      5-min Rain = 0
KLE1 092227Z 00008KT 26/M10 A2973 RMK A01 T02621104  RH  008%=      5-min Rain = 0
KLE1 092228Z 00007KT 26/M11 A2973 RMK A01 T02591108  RH  008%=      5-min Rain = 0
KLE1 092229Z 01009KT 26/M11 A2973 RMK A01 T02581105  RH  008%=      5-min Rain = 0
KLE1 092230Z 36008KT 26/M10 A2973 RMK A01 T02601104  RH  008%=      5-min Rain = 0
KLE1 092231Z 02011KT 26/M10 A2973 RMK A01 T02621102  RH  008%=      5-min Rain = 0
KLE1 092232Z 03010KT 26/M10 A2973 RMK A01 T02631100  RH  008%=      5-min Rain = 0
KLE1 092233Z 03011KT 26/M10 A2973 RMK A01 T02631100  RH  008%=      5-min Rain = 0
KLE1 092234Z 03011KT 26/M10 A2973 RMK A01 T02621102  RH  008%=      5-min Rain = 0
KLE1 092235Z 04007KT 26/M11 A2973 RMK A01 T02591106  RH  008%=      5-min Rain = 0
KLE1 092236Z 04005KT 25/M11 A2973 RMK A01 T02541109  RH  008%=      5-min Rain = 0
KLE1 092237Z 04008KT 25/M11 A2973 RMK A01 T02531106  RH  008%=      5-min Rain = 0
KLE1 092238Z 04009KT 25/M11 A2973 RMK A01 T02531105  RH  009%=      5-min Rain = 0
KLE1 092239Z 02010KT 25/M11 A2973 RMK A01 T02531105  RH  009%=      5-min Rain = 0
KLE1 092240Z 04013KT 25/M10 A2973 RMK A01 T02521103  RH  009%=      5-min Rain = 0
KLE1 092241Z 03012KT 25/M10 A2973 RMK A01 T02511103  RH  009%=      5-min Rain = 0
KLE1 092242Z 04012KT 25/M10 A2973 RMK A01 T02501101  RH  009%=      5-min Rain = 0
KLE1 092243Z 03013KT 25/M10 A2973 RMK A01 T02501102  RH  009%=      5-min Rain = 0
KLE1 092244Z 03011KT 25/M10 A2973 RMK A01 T02501102  RH  009%=      5-min Rain = 0
KLE1 092245Z 04010KT 25/M10 A2973 RMK A01 T02511101  RH  009%=      5-min Rain = 0
KLE1 092246Z 04009KT 25/M10 A2973 RMK A01 T02521098  RH  009%=      5-min Rain = 0
KLE1 092247Z 02011KT 25/M10 A2973 RMK A01 T02541100  RH  009%=      5-min Rain = 0
KLE1 092248Z 01010KT 25/M10 A2973 RMK A01 T02541103  RH  009%=      5-min Rain = 0
KLE1 092249Z 03008KT 25/M11 A2973 RMK A01 T02511105  RH  009%=      5-min Rain = 0
KLE1 092250Z 03009KT 25/M10 A2973 RMK A01 T02511102  RH  009%=      5-min Rain = 0
KLE1 092251Z 02007KT 25/M10 A2973 RMK A01 T02511101  RH  009%=      5-min Rain = 0
KLE1 092252Z 04010KT 25/M10 A2973 RMK A01 T02511101  RH  009%=      5-min Rain = 0
KLE1 092253Z 04011KT 25/M10 A2973 RMK A01 T02511101  RH  009%=      5-min Rain = 0
KLE1 092254Z 04010KT 25/M11 A2973 RMK A01 T02481105  RH  009%=      5-min Rain = 0
KLE1 092255Z 05009KT 25/M11 A2973 RMK A01 T02461106  RH  009%=      5-min Rain = 0
KLE1 092256Z 04009KT 25/M10 A2973 RMK A01 T02451104  RH  009%=      5-min Rain = 0
KLE1 092257Z 04010KT 25/M10 A2973 RMK A01 T02451104  RH  009%=      5-min Rain = 0
KLE1 092258Z 03010KT 25/M10 A2973 RMK A01 T02451102  RH  009%=      5-min Rain = 0
KLE1 092259Z 03008KT 24/M10 A2973 RMK A01 T02441103  RH  009%=      5-min Rain = 0
KLE1 092300Z 02008KT 24/M10 A2973 RMK A01 T02441103  RH  009%=      5-min Rain = 0
KLE1 092301Z 02008KT 24/M10 A2973 RMK A01 T02431104  RH  009%=      5-min Rain = 0
KLE1 092302Z 02009KT 24/M11 A2973 RMK A01 T02431105  RH  009%=      5-min Rain = 0
KLE1 092303Z 02009KT 24/M11 A2973 RMK A01 T02421105  RH  009%=      5-min Rain = 0
KLE1 092304Z 02009KT 24/M11 A2973 RMK A01 T02411105  RH  009%=      5-min Rain = 0
KLE1 092305Z 01010KT 24/M11 A2973 RMK A01 T02411105  RH  009%=      5-min Rain = 0
KLE1 092306Z 01010KT 24/M11 A2973 RMK A01 T02411105  RH  009%=      5-min Rain = 0
KLE1 092307Z 02011KT 24/M11 A2973 RMK A01 T02401105  RH  009%=      5-min Rain = 0
KLE1 092308Z 02010KT 24/M10 A2973 RMK A01 T02391103  RH  009%=      5-min Rain = 0
KLE1 092309Z 01008KT 24/M10 A2973 RMK A01 T02391103  RH  009%=      5-min Rain = 0
KLE1 092310Z 01009KT 24/M10 A2973 RMK A01 T02381102  RH  010%=      5-min Rain = 0
KLE1 092311Z 01007KT 24/M10 A2973 RMK A01 T02381103  RH  010%=      5-min Rain = 0
KLE1 092312Z 02009KT 24/M10 A2973 RMK A01 T02371102  RH  010%=      5-min Rain = 0
KLE1 092313Z 02010KT 24/M10 A2973 RMK A01 T02371103  RH  010%=      5-min Rain = 0
KLE1 092314Z 01011KT 24/M10 A2973 RMK A01 T02361103  RH  010%=      5-min Rain = 0
KLE1 092315Z 01010KT 24/M10 A2973 RMK A01 T02361103  RH  010%=      5-min Rain = 0
KLE1 092316Z 02011KT 24/M10 A2974 RMK A01 T02361103  RH  010%=      5-min Rain = 0
KLE1 092317Z 02012KT 24/M10 A2974 RMK A01 T02361103  RH  010%=      5-min Rain = 0
KLE1 092318Z 01010KT 24/M10 A2974 RMK A01 T02361104  RH  010%=      5-min Rain = 0
KLE1 092319Z 01010KT 24/M10 A2974 RMK A01 T02361104  RH  010%=      5-min Rain = 0
KLE1 092320Z 01010KT 24/M10 A2974 RMK A01 T02351104  RH  010%=      5-min Rain = 0
KLE1 092321Z 01010KT 24/M10 A2974 RMK A01 T02351104  RH  010%=      5-min Rain = 0
KLE1 092322Z 01010KT 24/M10 A2974 RMK A01 T02351104  RH  010%=      5-min Rain = 0
KLE1 092323Z 01010KT 24/M10 A2974 RMK A01 T02351104  RH  010%=      5-min Rain = 0
KLE1 092324Z 01009KT 23/M10 A2974 RMK A01 T02341104  RH  010%=      5-min Rain = 0
KLE1 092325Z 02010KT 23/M10 A2974 RMK A01 T02341102  RH  010%=      5-min Rain = 0
KLE1 092326Z 02010KT 23/M10 A2974 RMK A01 T02331100  RH  010%=      5-min Rain = 0
KLE1 092327Z 02011KT 23/M10 A2974 RMK A01 T02331100  RH  010%=      5-min Rain = 0
KLE1 092328Z 02010KT 23/M10 A2974 RMK A01 T02321102  RH  010%=      5-min Rain = 0
KLE1 092329Z 02010KT 23/M10 A2974 RMK A01 T02321101  RH  010%=      5-min Rain = 0
KLE1 092330Z 02010KT 23/M10 A2974 RMK A01 T02321101  RH  010%=      5-min Rain = 0
KLE1 092331Z 02009KT 23/M10 A2974 RMK A01 T02321101  RH  010%=      5-min Rain = 0
KLE1 092332Z 02009KT 23/M10 A2974 RMK A01 T02321101  RH  010%=      5-min Rain = 0
KLE1 092333Z 02009KT 23/M10 A2974 RMK A01 T02321101  RH  010%=      5-min Rain = 0
KLE1 092334Z 02009KT 23/M10 A2974 RMK A01 T02321101  RH  010%=      5-min Rain = 0
KLE1 092335Z 02010KT 23/M10 A2974 RMK A01 T02311101  RH  010%=      5-min Rain = 0
KLE1 092336Z 02010KT 23/M10 A2974 RMK A01 T02311099  RH  010%=      5-min Rain = 0
KLE1 092337Z 03009KT 23/M10 A2974 RMK A01 T02311098  RH  010%=      5-min Rain = 0
KLE1 092338Z 03009KT 23/M10 A2974 RMK A01 T02311096  RH  010%=      5-min Rain = 0
KLE1 092339Z 03008KT 23/M10 A2974 RMK A01 T02301096  RH  011%=      5-min Rain = 0
KLE1 092340Z 02008KT 23/M10 A2974 RMK A01 T02291095  RH  011%=      5-min Rain = 0
KLE1 092341Z 02008KT 23/M10 A2974 RMK A01 T02291096  RH  011%=      5-min Rain = 0
KLE1 092342Z 02008KT 23/M10 A2974 RMK A01 T02291096  RH  011%=      5-min Rain = 0
KLE1 092343Z 03008KT 23/M10 A2974 RMK A01 T02301095  RH  011%=      5-min Rain = 0
KLE1 092344Z 03008KT 23/M09 A2974 RMK A01 T02291094  RH  011%=      5-min Rain = 0
KLE1 092345Z 03008KT 23/M09 A2974 RMK A01 T02301093  RH  011%=      5-min Rain = 0
KLE1 092346Z 02008KT 23/M09 A2974 RMK A01 T02291093  RH  011%=      5-min Rain = 0
KLE1 092347Z 02008KT 23/M09 A2974 RMK A01 T02291093  RH  011%=      5-min Rain = 0
KLE1 092348Z 02009KT 23/M09 A2974 RMK A01 T02291093  RH  011%=      5-min Rain = 0
KLE1 092349Z 03008KT 23/M09 A2974 RMK A01 T02281092  RH  011%=      5-min Rain = 0
KLE1 092350Z 03008KT 23/M09 A2974 RMK A01 T02271092  RH  011%=      5-min Rain = 0
KLE1 092351Z 03009KT 23/M09 A2974 RMK A01 T02261093  RH  011%=      5-min Rain = 0
KLE1 092352Z 03008KT 23/M09 A2974 RMK A01 T02261092  RH  011%=      5-min Rain = 0
KLE1 092353Z 03007KT 23/M09 A2974 RMK A01 T02261091  RH  011%=      5-min Rain = 0
KLE1 092354Z 03009KT 23/M09 A2974 RMK A01 T02251092  RH  011%=      5-min Rain = 0
KLE1 092355Z 03008KT 23/M09 A2974 RMK A01 T02251091  RH  011%=      5-min Rain = 0
KLE1 092356Z 04009KT 23/M09 A2974 RMK A01 T02251090  RH  011%=      5-min Rain = 0
KLE1 092357Z 04008KT 22/M09 A2974 RMK A01 T02231091  RH  011%=      5-min Rain = 0
KLE1 092358Z 04009KT 22/M09 A2974 RMK A01 T02231091  RH  011%=      5-min Rain = 0
KLE1 092359Z 04010KT 22/M09 A2974 RMK A01 T02221092  RH  011%=      5-min Rain = 0
KLE1 100000Z 04010KT 22/M09 A2974 RMK A01 T02221091  RH  011%=      5-min Rain = 0
KLE1 100001Z 04009KT 22/M09 A2974 RMK A01 T02221092  RH  011%=      5-min Rain = 0
KLE1 100002Z 04010KT 22/M09 A2974 RMK A01 T02211092  RH  011%=      5-min Rain = 0
KLE1 100003Z 04009KT 22/M09 A2974 RMK A01 T02211091  RH  012%=      5-min Rain = 0
KLE1 100004Z 04010KT 22/M09 A2974 RMK A01 T02201091  RH  012%=      5-min Rain = 0
KLE1 100005Z 04010KT 22/M09 A2974 RMK A01 T02201091  RH  012%=      5-min Rain = 0
KLE1 100006Z 04009KT 22/M09 A2974 RMK A01 T02201090  RH  012%=      5-min Rain = 0
KLE1 100007Z 03010KT 22/M09 A2974 RMK A01 T02201090  RH  012%=      5-min Rain = 0
KLE1 100008Z 04010KT 22/M09 A2974 RMK A01 T02191090  RH  012%=      5-min Rain = 0
KLE1 100009Z 03009KT 22/M09 A2974 RMK A01 T02191090  RH  012%=      5-min Rain = 0
KLE1 100010Z 03009KT 22/M09 A2974 RMK A01 T02181089  RH  012%=      5-min Rain = 0
KLE1 100011Z 03009KT 22/M09 A2974 RMK A01 T02181089  RH  012%=      5-min Rain = 0
KLE1 100012Z 03009KT 22/M09 A2974 RMK A01 T02171090  RH  012%=      5-min Rain = 0
KLE1 100013Z 03009KT 22/M09 A2974 RMK A01 T02161089  RH  012%=      5-min Rain = 0
KLE1 100014Z 03009KT 22/M09 A2974 RMK A01 T02161088  RH  012%=      5-min Rain = 0
KLE1 100015Z 03009KT 22/M09 A2974 RMK A01 T02161088  RH  012%=      5-min Rain = 0
KLE1 100016Z 03009KT 22/M09 A2974 RMK A01 T02151088  RH  012%=      5-min Rain = 0
KLE1 100017Z 04009KT 21/M09 A2974 RMK A01 T02141087  RH  012%=      5-min Rain = 0
KLE1 100018Z 03009KT 21/M09 A2974 RMK A01 T02141087  RH  013%=      5-min Rain = 0
KLE1 100019Z 03009KT 21/M09 A2974 RMK A01 T02131086  RH  013%=      5-min Rain = 0
KLE1 100020Z 03009KT 21/M09 A2974 RMK A01 T02131086  RH  013%=      5-min Rain = 0
KLE1 100021Z 04009KT 21/M09 A2974 RMK A01 T02121086  RH  013%=      5-min Rain = 0
KLE1 100022Z 04009KT 21/M09 A2974 RMK A01 T02121086  RH  013%=      5-min Rain = 0
KLE1 100023Z 04009KT 21/M09 A2974 RMK A01 T02121085  RH  013%=      5-min Rain = 0
KLE1 100024Z 04009KT 21/M09 A2974 RMK A01 T02111085  RH  013%=      5-min Rain = 0
KLE1 100025Z 04009KT 21/M09 A2974 RMK A01 T02101086  RH  013%=      5-min Rain = 0
KLE1 100026Z 04009KT 21/M09 A2974 RMK A01 T02091085  RH  013%=      5-min Rain = 0
KLE1 100027Z 04010KT 21/M09 A2974 RMK A01 T02091085  RH  013%=      5-min Rain = 0
KLE1 100028Z 04010KT 21/M09 A2974 RMK A01 T02081085  RH  013%=      5-min Rain = 0
KLE1 100029Z 04009KT 21/M09 A2974 RMK A01 T02081085  RH  013%=      5-min Rain = 0
KLE1 100030Z 04009KT 21/M08 A2974 RMK A01 T02091084  RH  013%=      5-min Rain = 0
KLE1 100031Z 04009KT 21/M08 A2974 RMK A01 T02071084  RH  013%=      5-min Rain = 0
KLE1 100032Z 04009KT 21/M08 A2974 RMK A01 T02061084  RH  013%=      5-min Rain = 0
KLE1 100033Z 04009KT 21/M08 A2974 RMK A01 T02051084  RH  013%=      5-min Rain = 0
KLE1 100034Z 04008KT 20/M09 A2974 RMK A01 T02041085  RH  014%=      5-min Rain = 0
KLE1 100035Z 04008KT 20/M08 A2974 RMK A01 T02031084  RH  014%=      5-min Rain = 0
KLE1 100036Z 03008KT 20/M08 A2974 RMK A01 T02021084  RH  014%=      5-min Rain = 0
KLE1 100037Z 03008KT 20/M08 A2974 RMK A01 T02011084  RH  014%=      5-min Rain = 0
KLE1 100038Z 04008KT 20/M08 A2974 RMK A01 T02001084  RH  014%=      5-min Rain = 0
KLE1 100039Z 04008KT 20/M08 A2974 RMK A01 T02001083  RH  014%=      5-min Rain = 0
KLE1 100040Z 04008KT 20/M08 A2974 RMK A01 T01991083  RH  014%=      5-min Rain = 0
KLE1 100041Z 03008KT 20/M08 A2974 RMK A01 T01981083  RH  014%=      5-min Rain = 0
KLE1 100042Z 03008KT 20/M08 A2974 RMK A01 T01981083  RH  014%=      5-min Rain = 0
KLE1 100043Z 03008KT 20/M08 A2974 RMK A01 T01981082  RH  014%=      5-min Rain = 0
KLE1 100044Z 03008KT 20/M08 A2974 RMK A01 T01971082  RH  014%=      5-min Rain = 0
KLE1 100045Z 03008KT 20/M08 A2974 RMK A01 T01961082  RH  015%=      5-min Rain = 0
KLE1 100046Z 03008KT 20/M08 A2974 RMK A01 T01951082  RH  015%=      5-min Rain = 0
KLE1 100047Z 03008KT 19/M08 A2974 RMK A01 T01941081  RH  015%=      5-min Rain = 0
KLE1 100048Z 03009KT 19/M08 A2974 RMK A01 T01931081  RH  015%=      5-min Rain = 0
KLE1 100049Z 03009KT 19/M08 A2975 RMK A01 T01921081  RH  015%=      5-min Rain = 0
KLE1 100050Z 03009KT 19/M08 A2975 RMK A01 T01901080  RH  015%=      5-min Rain = 0
KLE1 100051Z 03009KT 19/M08 A2975 RMK A01 T01901079  RH  015%=      5-min Rain = 0
KLE1 100052Z 03009KT 19/M08 A2975 RMK A01 T01891078  RH  016%=      5-min Rain = 0
KLE1 100053Z 03009KT 19/M08 A2975 RMK A01 T01891078  RH  016%=      5-min Rain = 0
KLE1 100054Z 03009KT 19/M08 A2975 RMK A01 T01891077  RH  016%=      5-min Rain = 0
KLE1 100055Z 03009KT 19/M08 A2975 RMK A01 T01891076  RH  016%=      5-min Rain = 0
KLE1 100056Z 03009KT 19/M08 A2975 RMK A01 T01891075  RH  016%=      5-min Rain = 0
KLE1 100057Z 03009KT 19/M08 A2975 RMK A01 T01881075  RH  016%=      5-min Rain = 0
KLE1 100058Z 03009KT 19/M07 A2975 RMK A01 T01881074  RH  016%=      5-min Rain = 0
KLE1 100059Z 03009KT 19/M07 A2975 RMK A01 T01871074  RH  016%=      5-min Rain = 0
KLE1 100100Z 03009KT 19/M07 A2975 RMK A01 T01861074  RH  016%=      5-min Rain = 0
KLE1 100101Z 03009KT 19/M07 A2975 RMK A01 T01861074  RH  016%=      5-min Rain = 0
KLE1 100102Z 03009KT 19/M07 A2975 RMK A01 T01861073  RH  016%=      5-min Rain = 0
KLE1 100103Z 02010KT 19/M07 A2975 RMK A01 T01861073  RH  017%=      5-min Rain = 0
KLE1 100104Z 02009KT 19/M07 A2975 RMK A01 T01861072  RH  017%=      5-min Rain = 0
KLE1 100105Z 02009KT 19/M07 A2975 RMK A01 T01851072  RH  017%=      5-min Rain = 0
KLE1 100106Z 02010KT 19/M07 A2975 RMK A01 T01851072  RH  017%=      5-min Rain = 0
KLE1 100107Z 02009KT 18/M07 A2975 RMK A01 T01841072  RH  017%=      5-min Rain = 0
KLE1 100108Z 02009KT 18/M07 A2975 RMK A01 T01831073  RH  017%=      5-min Rain = 0
KLE1 100109Z 02010KT 18/M07 A2975 RMK A01 T01811074  RH  017%=      5-min Rain = 0
KLE1 100110Z 02010KT 18/M07 A2975 RMK A01 T01791074  RH  017%=      5-min Rain = 0
KLE1 100111Z 02010KT 18/M07 A2975 RMK A01 T01781074  RH  017%=      5-min Rain = 0
KLE1 100112Z 02010KT 18/M07 A2975 RMK A01 T01781073  RH  017%=      5-min Rain = 0
KLE1 100113Z 02010KT 18/M07 A2975 RMK A01 T01781073  RH  017%=      5-min Rain = 0
KLE1 100114Z 02010KT 18/M07 A2975 RMK A01 T01781072  RH  017%=      5-min Rain = 0
KLE1 100115Z 02009KT 18/M07 A2975 RMK A01 T01781071  RH  018%=      5-min Rain = 0
KLE1 100116Z 03009KT 18/M07 A2975 RMK A01 T01771071  RH  018%=      5-min Rain = 0
KLE1 100117Z 02009KT 18/M07 A2975 RMK A01 T01771071  RH  018%=      5-min Rain = 0
KLE1 100118Z 02009KT 18/M07 A2975 RMK A01 T01771071  RH  018%=      5-min Rain = 0
KLE1 100119Z 03009KT 18/M07 A2975 RMK A01 T01761071  RH  018%=      5-min Rain = 0
KLE1 100120Z 03009KT 18/M07 A2975 RMK A01 T01771071  RH  018%=      5-min Rain = 0
KLE1 100121Z 03010KT 18/M07 A2975 RMK A01 T01761070  RH  018%=      5-min Rain = 0
KLE1 100122Z 03010KT 18/M07 A2975 RMK A01 T01761070  RH  018%=      5-min Rain = 0
KLE1 100123Z 03009KT 18/M07 A2975 RMK A01 T01761070  RH  018%=      5-min Rain = 0
KLE1 100124Z 03010KT 18/M07 A2975 RMK A01 T01751070  RH  018%=      5-min Rain = 0
KLE1 100125Z 03010KT 18/M07 A2975 RMK A01 T01751070  RH  018%=      5-min Rain = 0
KLE1 100126Z 03010KT 17/M07 A2975 RMK A01 T01741069  RH  018%=      5-min Rain = 0
KLE1 100127Z 03010KT 17/M07 A2975 RMK A01 T01741069  RH  018%=      5-min Rain = 0
KLE1 100128Z 03010KT 17/M07 A2975 RMK A01 T01741069  RH  018%=      5-min Rain = 0
KLE1 100129Z 03010KT 17/M07 A2975 RMK A01 T01741069  RH  018%=      5-min Rain = 0
KLE1 100130Z 03010KT 17/M07 A2975 RMK A01 T01741068  RH  019%=      5-min Rain = 0
KLE1 100131Z 03010KT 17/M07 A2975 RMK A01 T01731068  RH  019%=      5-min Rain = 0
KLE1 100132Z 03011KT 17/M07 A2975 RMK A01 T01731068  RH  019%=      5-min Rain = 0
KLE1 100133Z 03011KT 17/M07 A2975 RMK A01 T01731068  RH  019%=      5-min Rain = 0
KLE1 100134Z 03011KT 17/M07 A2975 RMK A01 T01731067  RH  019%=      5-min Rain = 0
KLE1 100135Z 03011KT 17/M07 A2975 RMK A01 T01741067  RH  019%=      5-min Rain = 0
KLE1 100136Z 03010KT 18/M07 A2975 RMK A01 T01751067  RH  019%=      5-min Rain = 0
KLE1 100137Z 03010KT 17/M07 A2975 RMK A01 T01741067  RH  019%=      5-min Rain = 0
KLE1 100138Z 03010KT 17/M07 A2976 RMK A01 T01741066  RH  019%=      5-min Rain = 0
KLE1 100139Z 03010KT 17/M07 A2976 RMK A01 T01741067  RH  019%=      5-min Rain = 0
KLE1 100140Z 04009KT 17/M07 A2976 RMK A01 T01741067  RH  019%=      5-min Rain = 0
KLE1 100141Z 04010KT 17/M07 A2976 RMK A01 T01731067  RH  019%=      5-min Rain = 0
KLE1 100142Z 04009KT 17/M07 A2976 RMK A01 T01721067  RH  019%=      5-min Rain = 0
KLE1 100143Z 04009KT 17/M07 A2976 RMK A01 T01721066  RH  019%=      5-min Rain = 0
KLE1 100144Z 04010KT 17/M07 A2976 RMK A01 T01721066  RH  019%=      5-min Rain = 0
KLE1 100145Z 04010KT 17/M07 A2976 RMK A01 T01721066  RH  019%=      5-min Rain = 0
KLE1 100146Z 03010KT 17/M07 A2976 RMK A01 T01711066  RH  019%=      5-min Rain = 0
KLE1 100147Z 03009KT 17/M07 A2976 RMK A01 T01711066  RH  019%=      5-min Rain = 0
KLE1 100148Z 03009KT 17/M07 A2976 RMK A01 T01701066  RH  019%=      5-min Rain = 0
KLE1 100149Z 03009KT 17/M07 A2976 RMK A01 T01701066  RH  019%=      5-min Rain = 0
KLE1 100150Z 03010KT 17/M07 A2976 RMK A01 T01701066  RH  019%=      5-min Rain = 0
KLE1 100151Z 03010KT 17/M07 A2976 RMK A01 T01701066  RH  019%=      5-min Rain = 0
KLE1 100152Z 03009KT 17/M07 A2976 RMK A01 T01691066  RH  019%=      5-min Rain = 0
KLE1 100153Z 03009KT 17/M07 A2976 RMK A01 T01681066  RH  020%=      5-min Rain = 0
KLE1 100154Z 03009KT 17/M07 A2976 RMK A01 T01671066  RH  020%=      5-min Rain = 0
KLE1 100155Z 03009KT 17/M07 A2976 RMK A01 T01661066  RH  020%=      5-min Rain = 0
KLE1 100156Z 03009KT 17/M07 A2976 RMK A01 T01651066  RH  020%=      5-min Rain = 0
KLE1 100157Z 03009KT 16/M07 A2976 RMK A01 T01641066  RH  020%=      5-min Rain = 0
KLE1 100158Z 03009KT 16/M07 A2977 RMK A01 T01631066  RH  020%=      5-min Rain = 0
KLE1 100159Z 03008KT 16/M07 A2977 RMK A01 T01621066  RH  020%=      5-min Rain = 0
KLE1 100200Z 03008KT 16/M07 A2977 RMK A01 T01621066  RH  020%=      5-min Rain = 0
KLE1 100201Z 04009KT 16/M07 A2977 RMK A01 T01611066  RH  020%=      5-min Rain = 0
KLE1 100202Z 04008KT 16/M07 A2977 RMK A01 T01611066  RH  020%=      5-min Rain = 0
KLE1 100203Z 04009KT 16/M07 A2977 RMK A01 T01611065  RH  020%=      5-min Rain = 0
KLE1 100204Z 04008KT 16/M07 A2977 RMK A01 T01611066  RH  020%=      5-min Rain = 0
KLE1 100205Z 04009KT 16/M07 A2977 RMK A01 T01611066  RH  020%=      5-min Rain = 0
KLE1 100206Z 04009KT 16/M07 A2977 RMK A01 T01611066  RH  020%=      5-min Rain = 0
KLE1 100207Z 04010KT 16/M07 A2977 RMK A01 T01611066  RH  020%=      5-min Rain = 0
KLE1 100208Z 04010KT 16/M07 A2977 RMK A01 T01621065  RH  020%=      5-min Rain = 0
KLE1 100209Z 04009KT 16/M07 A2977 RMK A01 T01631065  RH  020%=      5-min Rain = 0
KLE1 100210Z 03009KT 16/M07 A2977 RMK A01 T01631065  RH  020%=      5-min Rain = 0
KLE1 100211Z 04010KT 16/M07 A2977 RMK A01 T01621065  RH  020%=      5-min Rain = 0
KLE1 100212Z 04010KT 16/M07 A2977 RMK A01 T01611065  RH  021%=      5-min Rain = 0
KLE1 100213Z 04010KT 16/M06 A2977 RMK A01 T01611064  RH  021%=      5-min Rain = 0
KLE1 100214Z 03010KT 16/M06 A2977 RMK A01 T01611064  RH  021%=      5-min Rain = 0
KLE1 100215Z 04010KT 16/M06 A2977 RMK A01 T01611064  RH  021%=      5-min Rain = 0
KLE1 100216Z 03011KT 16/M06 A2977 RMK A01 T01611063  RH  021%=      5-min Rain = 0
KLE1 100217Z 03010KT 16/M06 A2977 RMK A01 T01611062  RH  021%=      5-min Rain = 0
KLE1 100218Z 04010KT 16/M06 A2977 RMK A01 T01611062  RH  021%=      5-min Rain = 0
KLE1 100219Z 04010KT 16/M06 A2977 RMK A01 T01611062  RH  021%=      5-min Rain = 0
KLE1 100220Z 04010KT 16/M06 A2977 RMK A01 T01611062  RH  021%=      5-min Rain = 0
KLE1 100221Z 04010KT 16/M06 A2977 RMK A01 T01611061  RH  021%=      5-min Rain = 0
KLE1 100222Z 04011KT 16/M06 A2977 RMK A01 T01611061  RH  021%=      5-min Rain = 0
KLE1 100223Z 04009KT 16/M06 A2977 RMK A01 T01611060  RH  021%=      5-min Rain = 0
KLE1 100224Z 04009KT 16/M06 A2977 RMK A01 T01611061  RH  021%=      5-min Rain = 0
KLE1 100225Z 04009KT 16/M06 A2977 RMK A01 T01601061  RH  021%=      5-min Rain = 0
KLE1 100226Z 04009KT 16/M06 A2977 RMK A01 T01601060  RH  021%=      5-min Rain = 0
KLE1 100227Z 04009KT 16/M06 A2977 RMK A01 T01601060  RH  022%=      5-min Rain = 0
KLE1 100228Z 04009KT 16/M06 A2978 RMK A01 T01591060  RH  022%=      5-min Rain = 0
KLE1 100229Z 04009KT 16/M06 A2978 RMK A01 T01581061  RH  022%=      5-min Rain = 0
KLE1 100230Z 05009KT 16/M06 A2978 RMK A01 T01581060  RH  022%=      5-min Rain = 0
KLE1 100231Z 04008KT 16/M06 A2978 RMK A01 T01581060  RH  022%=      5-min Rain = 0
KLE1 100232Z 04008KT 16/M06 A2978 RMK A01 T01581060  RH  022%=      5-min Rain = 0
KLE1 100233Z 04008KT 16/M06 A2978 RMK A01 T01571060  RH  022%=      5-min Rain = 0
KLE1 100234Z 04008KT 16/M06 A2978 RMK A01 T01561060  RH  022%=      5-min Rain = 0
KLE1 100235Z 05008KT 16/M06 A2978 RMK A01 T01561060  RH  022%=      5-min Rain = 0
KLE1 100236Z 05007KT 16/M06 A2978 RMK A01 T01551060  RH  022%=      5-min Rain = 0
KLE1 100237Z 05008KT 15/M06 A2978 RMK A01 T01541060  RH  022%=      5-min Rain = 0
KLE1 100238Z 05008KT 15/M06 A2978 RMK A01 T01531060  RH  022%=      5-min Rain = 0
KLE1 100239Z 04008KT 15/M06 A2978 RMK A01 T01521061  RH  022%=      5-min Rain = 0
KLE1 100240Z 04009KT 15/M06 A2978 RMK A01 T01521060  RH  023%=      5-min Rain = 0
KLE1 100241Z 05009KT 15/M06 A2978 RMK A01 T01511060  RH  023%=      5-min Rain = 0
KLE1 100242Z 04009KT 15/M06 A2978 RMK A01 T01511060  RH  023%=      5-min Rain = 0
KLE1 100243Z 04008KT 15/M06 A2978 RMK A01 T01501060  RH  023%=      5-min Rain = 0
KLE1 100244Z 04009KT 15/M06 A2978 RMK A01 T01501060  RH  023%=      5-min Rain = 0
KLE1 100245Z 04009KT 15/M06 A2978 RMK A01 T01501060  RH  023%=      5-min Rain = 0
KLE1 100246Z 04009KT 15/M06 A2978 RMK A01 T01491060  RH  023%=      5-min Rain = 0
KLE1 100247Z 04008KT 15/M06 A2978 RMK A01 T01491060  RH  023%=      5-min Rain = 0
KLE1 100248Z 04008KT 15/M06 A2978 RMK A01 T01491060  RH  023%=      5-min Rain = 0
KLE1 100249Z 05008KT 15/M06 A2978 RMK A01 T01491060  RH  023%=      5-min Rain = 0
KLE1 100250Z 05008KT 15/M06 A2978 RMK A01 T01481060  RH  023%=      5-min Rain = 0
KLE1 100251Z 05008KT 15/M06 A2978 RMK A01 T01491060  RH  023%=      5-min Rain = 0
KLE1 100252Z 05008KT 15/M06 A2978 RMK A01 T01481060  RH  023%=      5-min Rain = 0
KLE1 100253Z 05008KT 15/M06 A2978 RMK A01 T01471060  RH  023%=      5-min Rain = 0
KLE1 100254Z 04008KT 15/M06 A2978 RMK A01 T01471061  RH  023%=      5-min Rain = 0
KLE1 100255Z 04009KT 15/M06 A2978 RMK A01 T01461061  RH  023%=      5-min Rain = 0
KLE1 100256Z 05008KT 15/M06 A2978 RMK A01 T01461060  RH  024%=      5-min Rain = 0
KLE1 100257Z 04008KT 15/M06 A2978 RMK A01 T01451061  RH  024%=      5-min Rain = 0
KLE1 100258Z 05009KT 15/M06 A2978 RMK A01 T01451061  RH  024%=      5-min Rain = 0
KLE1 100259Z 04008KT 14/M06 A2978 RMK A01 T01441061  RH  024%=      5-min Rain = 0
KLE1 100300Z 04008KT 14/M06 A2978 RMK A01 T01441061  RH  024%=      5-min Rain = 0
KLE1 100301Z 05008KT 14/M06 A2978 RMK A01 T01431061  RH  024%=      5-min Rain = 0
KLE1 100302Z 05008KT 14/M06 A2978 RMK A01 T01431061  RH  024%=      5-min Rain = 0
KLE1 100303Z 05008KT 14/M06 A2978 RMK A01 T01431061  RH  024%=      5-min Rain = 0
KLE1 100304Z 05008KT 14/M06 A2978 RMK A01 T01421061  RH  024%=      5-min Rain = 0
KLE1 100305Z 05008KT 14/M06 A2978 RMK A01 T01411061  RH  024%=      5-min Rain = 0
KLE1 100306Z 05008KT 14/M06 A2979 RMK A01 T01411062  RH  024%=      5-min Rain = 0
KLE1 100307Z 05007KT 14/M06 A2979 RMK A01 T01401062  RH  024%=      5-min Rain = 0
KLE1 100308Z 05008KT 14/M06 A2979 RMK A01 T01391062  RH  024%=      5-min Rain = 0
KLE1 100309Z 05008KT 14/M06 A2979 RMK A01 T01391062  RH  024%=      5-min Rain = 0
KLE1 100310Z 05008KT 14/M06 A2979 RMK A01 T01381062  RH  024%=      5-min Rain = 0
KLE1 100311Z 05008KT 14/M06 A2979 RMK A01 T01381062  RH  025%=      5-min Rain = 0
KLE1 100312Z 05008KT 14/M06 A2979 RMK A01 T01371062  RH  025%=      5-min Rain = 0
KLE1 100313Z 04008KT 14/M06 A2979 RMK A01 T01361062  RH  025%=      5-min Rain = 0
KLE1 100314Z 04008KT 14/M06 A2979 RMK A01 T01361062  RH  025%=      5-min Rain = 0
KLE1 100315Z 04008KT 14/M06 A2979 RMK A01 T01361062  RH  025%=      5-min Rain = 0
KLE1 100316Z 04007KT 14/M06 A2979 RMK A01 T01361061  RH  025%=      5-min Rain = 0
KLE1 100317Z 04008KT 14/M06 A2979 RMK A01 T01351062  RH  025%=      5-min Rain = 0
KLE1 100318Z 04008KT 14/M06 A2979 RMK A01 T01351062  RH  025%=      5-min Rain = 0
KLE1 100319Z 04008KT 13/M06 A2979 RMK A01 T01341062  RH  025%=      5-min Rain = 0
KLE1 100320Z 04008KT 13/M06 A2979 RMK A01 T01341062  RH  025%=      5-min Rain = 0
KLE1 100321Z 04008KT 13/M06 A2979 RMK A01 T01331062  RH  025%=      5-min Rain = 0
KLE1 100322Z 04008KT 13/M06 A2979 RMK A01 T01331062  RH  025%=      5-min Rain = 0
KLE1 100323Z 05008KT 13/M06 A2979 RMK A01 T01331062  RH  025%=      5-min Rain = 0
KLE1 100324Z 05008KT 13/M06 A2979 RMK A01 T01331062  RH  025%=      5-min Rain = 0
KLE1 100325Z 05008KT 13/M06 A2979 RMK A01 T01341062  RH  025%=      5-min Rain = 0
KLE1 100326Z 05007KT 13/M06 A2979 RMK A01 T01341062  RH  025%=      5-min Rain = 0
KLE1 100327Z 04007KT 13/M06 A2979 RMK A01 T01341062  RH  025%=      5-min Rain = 0
KLE1 100328Z 05007KT 13/M06 A2979 RMK A01 T01341062  RH  025%=      5-min Rain = 0
KLE1 100329Z 04008KT 13/M06 A2979 RMK A01 T01331063  RH  025%=      5-min Rain = 0
KLE1 100330Z 05008KT 13/M06 A2979 RMK A01 T01331063  RH  025%=      5-min Rain = 0
KLE1 100331Z 04007KT 13/M06 A2979 RMK A01 T01331063  RH  025%=      5-min Rain = 0
KLE1 100332Z 05008KT 13/M06 A2979 RMK A01 T01331063  RH  025%=      5-min Rain = 0
KLE1 100333Z 05008KT 13/M06 A298 RMK A01 T01331062  RH  025%=      5-min Rain = 0
KLE1 100334Z 05007KT 13/M06 A298 RMK A01 T01321063  RH  025%=      5-min Rain = 0
KLE1 100335Z 05007KT 13/M06 A298 RMK A01 T01321063  RH  025%=      5-min Rain = 0
KLE1 100336Z 05007KT 13/M06 A298 RMK A01 T01311063  RH  025%=      5-min Rain = 0
KLE1 100337Z 05007KT 13/M06 A298 RMK A01 T01311062  RH  026%=      5-min Rain = 0
KLE1 100338Z 04007KT 13/M06 A298 RMK A01 T01301062  RH  026%=      5-min Rain = 0
KLE1 100339Z 05007KT 13/M06 A298 RMK A01 T01301062  RH  026%=      5-min Rain = 0
KLE1 100340Z 05007KT 13/M06 A298 RMK A01 T01301062  RH  026%=      5-min Rain = 0
KLE1 100341Z 04007KT 13/M06 A298 RMK A01 T01301062  RH  026%=      5-min Rain = 0
KLE1 100342Z 05007KT 13/M06 A298 RMK A01 T01291062  RH  026%=      5-min Rain = 0
KLE1 100343Z 05007KT 13/M06 A298 RMK A01 T01291062  RH  026%=      5-min Rain = 0
KLE1 100344Z 05007KT 13/M06 A298 RMK A01 T01281062  RH  026%=      5-min Rain = 0
KLE1 100345Z 05007KT 13/M06 A298 RMK A01 T01271063  RH  026%=      5-min Rain = 0
KLE1 100346Z 05007KT 13/M06 A298 RMK A01 T01271062  RH  026%=      5-min Rain = 0
KLE1 100347Z 05008KT 13/M06 A298 RMK A01 T01271062  RH  026%=      5-min Rain = 0
KLE1 100348Z 05008KT 13/M06 A298 RMK A01 T01271063  RH  026%=      5-min Rain = 0
KLE1 100349Z 05008KT 13/M06 A298 RMK A01 T01271063  RH  026%=      5-min Rain = 0
KLE1 100350Z 05008KT 13/M06 A298 RMK A01 T01271063  RH  026%=      5-min Rain = 0
KLE1 100351Z 05008KT 13/M06 A2979 RMK A01 T01271062  RH  026%=      5-min Rain = 0
KLE1 100352Z 05008KT 13/M06 A2979 RMK A01 T01271062  RH  026%=      5-min Rain = 0
KLE1 100353Z 05007KT 13/M06 A2979 RMK A01 T01271062  RH  026%=      5-min Rain = 0
KLE1 100354Z 05007KT 13/M06 A2979 RMK A01 T01271062  RH  026%=      5-min Rain = 0
KLE1 100355Z 05007KT 13/M06 A2979 RMK A01 T01271062  RH  026%=      5-min Rain = 0
KLE1 100356Z 05007KT 13/M06 A2979 RMK A01 T01271062  RH  026%=      5-min Rain = 0
KLE1 100357Z 05007KT 13/M06 A2979 RMK A01 T01271062  RH  026%=      5-min Rain = 0
KLE1 100358Z 05007KT 13/M06 A2979 RMK A01 T01271063  RH  026%=      5-min Rain = 0
KLE1 100359Z 05007KT 13/M06 A2979 RMK A01 T01261063  RH  026%=      5-min Rain = 0
KLE1 100400Z 05007KT 13/M06 A2979 RMK A01 T01261063  RH  026%=      5-min Rain = 0
KLE1 100401Z 05007KT 13/M06 A2979 RMK A01 T01251063  RH  026%=      5-min Rain = 0
KLE1 100402Z 05007KT 13/M06 A2979 RMK A01 T01251063  RH  026%=      5-min Rain = 0
KLE1 100403Z 05007KT 12/M06 A2979 RMK A01 T01241064  RH  026%=      5-min Rain = 0
KLE1 100404Z 04007KT 12/M06 A2979 RMK A01 T01241063  RH  026%=      5-min Rain = 0
KLE1 100405Z 04007KT 12/M06 A2979 RMK A01 T01241063  RH  027%=      5-min Rain = 0
KLE1 100406Z 04007KT 12/M06 A2979 RMK A01 T01241063  RH  027%=      5-min Rain = 0
KLE1 100407Z 04007KT 12/M06 A2979 RMK A01 T01231063  RH  027%=      5-min Rain = 0
KLE1 100408Z 04007KT 12/M06 A298 RMK A01 T01231063  RH  027%=      5-min Rain = 0
KLE1 100409Z 04007KT 12/M06 A298 RMK A01 T01231064  RH  027%=      5-min Rain = 0
KLE1 100410Z 04007KT 12/M06 A298 RMK A01 T01221064  RH  027%=      5-min Rain = 0
KLE1 100411Z 04007KT 12/M06 A298 RMK A01 T01221063  RH  027%=      5-min Rain = 0
KLE1 100412Z 04007KT 12/M06 A298 RMK A01 T01211063  RH  027%=      5-min Rain = 0
KLE1 100413Z 03007KT 12/M06 A298 RMK A01 T01201063  RH  027%=      5-min Rain = 0
KLE1 100414Z 03008KT 12/M06 A298 RMK A01 T01201064  RH  027%=      5-min Rain = 0
KLE1 100415Z 03008KT 12/M06 A298 RMK A01 T01201063  RH  027%=      5-min Rain = 0
KLE1 100416Z 03008KT 12/M06 A298 RMK A01 T01201064  RH  027%=      5-min Rain = 0
KLE1 100417Z 03008KT 12/M06 A298 RMK A01 T01191064  RH  027%=      5-min Rain = 0
KLE1 100418Z 03008KT 12/M07 A298 RMK A01 T01181065  RH  027%=      5-min Rain = 0
KLE1 100419Z 03008KT 12/M07 A298 RMK A01 T01171065  RH  027%=      5-min Rain = 0
KLE1 100420Z 03008KT 12/M07 A298 RMK A01 T01171065  RH  027%=      5-min Rain = 0
KLE1 100421Z 03008KT 12/M07 A298 RMK A01 T01171065  RH  027%=      5-min Rain = 0
KLE1 100422Z 03009KT 12/M06 A298 RMK A01 T01181064  RH  027%=      5-min Rain = 0
KLE1 100423Z 03009KT 12/M06 A298 RMK A01 T01171064  RH  027%=      5-min Rain = 0
KLE1 100424Z 03009KT 12/M06 A298 RMK A01 T01171064  RH  028%=      5-min Rain = 0
KLE1 100425Z 03009KT 12/M06 A298 RMK A01 T01171064  RH  028%=      5-min Rain = 0
KLE1 100426Z 03009KT 12/M06 A298 RMK A01 T01161064  RH  028%=      5-min Rain = 0
KLE1 100427Z 03009KT 12/M06 A298 RMK A01 T01161064  RH  028%=      5-min Rain = 0
KLE1 100428Z 03009KT 12/M06 A298 RMK A01 T01161064  RH  028%=      5-min Rain = 0
KLE1 100429Z 04009KT 12/M06 A2979 RMK A01 T01161063  RH  028%=      5-min Rain = 0
KLE1 100430Z 04009KT 12/M06 A2979 RMK A01 T01161063  RH  028%=      5-min Rain = 0
KLE1 100431Z 04009KT 12/M06 A2979 RMK A01 T01161063  RH  028%=      5-min Rain = 0
KLE1 100432Z 04009KT 12/M06 A2979 RMK A01 T01151063  RH  028%=      5-min Rain = 0
KLE1 100433Z 04008KT 11/M06 A2979 RMK A01 T01141063  RH  028%=      5-min Rain = 0
KLE1 100434Z 04008KT 11/M06 A2979 RMK A01 T01141063  RH  028%=      5-min Rain = 0
KLE1 100435Z 04007KT 11/M06 A2979 RMK A01 T01131063  RH  029%=      5-min Rain = 0
KLE1 100436Z 04007KT 11/M06 A2979 RMK A01 T01131062  RH  029%=      5-min Rain = 0
KLE1 100437Z 04007KT 11/M06 A2979 RMK A01 T01121063  RH  029%=      5-min Rain = 0
KLE1 100438Z 04007KT 11/M06 A2979 RMK A01 T01121063  RH  029%=      5-min Rain = 0
KLE1 100439Z 04007KT 11/M06 A2979 RMK A01 T01121062  RH  029%=      5-min Rain = 0
KLE1 100440Z 04007KT 11/M06 A2979 RMK A01 T01121062  RH  029%=      5-min Rain = 0
KLE1 100441Z 05007KT 11/M06 A2979 RMK A01 T01121062  RH  029%=      5-min Rain = 0
KLE1 100442Z 05006KT 11/M06 A2979 RMK A01 T01121062  RH  029%=      5-min Rain = 0
KLE1 100443Z 04006KT 11/M06 A2979 RMK A01 T01121062  RH  029%=      5-min Rain = 0
KLE1 100444Z 04006KT 11/M06 A2979 RMK A01 T01111062  RH  029%=      5-min Rain = 0
KLE1 100445Z 05005KT 11/M06 A2979 RMK A01 T01101063  RH  029%=      5-min Rain = 0
KLE1 100446Z 05005KT 11/M06 A2979 RMK A01 T01081064  RH  029%=      5-min Rain = 0
KLE1 100447Z 05005KT 11/M06 A2979 RMK A01 T01081063  RH  030%=      5-min Rain = 0
KLE1 100448Z 06004KT 11/M06 A2979 RMK A01 T01081063  RH  030%=      5-min Rain = 0
KLE1 100449Z 05004KT 11/M06 A2979 RMK A01 T01081063  RH  030%=      5-min Rain = 0
KLE1 100450Z 05004KT 11/M06 A2979 RMK A01 T01091063  RH  029%=      5-min Rain = 0
KLE1 100451Z 05004KT 11/M06 A2979 RMK A01 T01101063  RH  029%=      5-min Rain = 0
KLE1 100452Z 04004KT 11/M06 A2979 RMK A01 T01111062  RH  029%=      5-min Rain = 0
KLE1 100453Z 04004KT 11/M06 A2979 RMK A01 T01111062  RH  029%=      5-min Rain = 0
KLE1 100454Z 04004KT 11/M06 A2979 RMK A01 T01121061  RH  029%=      5-min Rain = 0
KLE1 100455Z 03004KT 11/M06 A2979 RMK A01 T01131061  RH  029%=      5-min Rain = 0
KLE1 100456Z 02004KT 11/M06 A298 RMK A01 T01141061  RH  029%=      5-min Rain = 0
KLE1 100457Z 02004KT 11/M06 A298 RMK A01 T01141062  RH  029%=      5-min Rain = 0
KLE1 100458Z 01004KT 11/M06 A298 RMK A01 T01131062  RH  029%=      5-min Rain = 0
KLE1 100459Z 36003KT 11/M06 A298 RMK A01 T01131063  RH  029%=      5-min Rain = 0
KLE1 100500Z 34003KT 11/M06 A298 RMK A01 T01101064  RH  029%=      5-min Rain = 0
KLE1 100501Z 32003KT 11/M07 A2981 RMK A01 T01051066  RH  029%=      5-min Rain = 0
KLE1 100502Z 31003KT 10/M07 A2981 RMK A01 T00971072  RH  030%=      5-min Rain = 0
KLE1 100503Z 29002KT 09/M07 A2981 RMK A01 T00911074  RH  030%=      5-min Rain = 0
KLE1 100504Z 27002KT 09/M07 A2981 RMK A01 T00871073  RH  031%=      5-min Rain = 0
KLE1 100505Z 26002KT 08/M07 A2981 RMK A01 T00841073  RH  032%=      5-min Rain = 0
KLE1 100506Z 27002KT 08/M07 A2981 RMK A01 T00831072  RH  032%=      5-min Rain = 0
KLE1 100507Z 27002KT 08/M07 A2981 RMK A01 T00841071  RH  033%=      5-min Rain = 0
KLE1 100508Z 27002KT 09/M07 A2981 RMK A01 T00881068  RH  032%=      5-min Rain = 0
KLE1 100509Z 27003KT 09/M07 A2981 RMK A01 T00921066  RH  032%=      5-min Rain = 0
KLE1 100510Z 27003KT 10/M06 A2981 RMK A01 T00961064  RH  032%=      5-min Rain = 0
KLE1 100511Z 28003KT 10/M06 A2981 RMK A01 T00991064  RH  031%=      5-min Rain = 0
KLE1 100512Z 28003KT 10/M06 A2982 RMK A01 T01011064  RH  031%=      5-min Rain = 0
KLE1 100513Z 26004KT 10/M06 A2982 RMK A01 T01031064  RH  030%=      5-min Rain = 0
KLE1 100514Z 26005KT 10/M07 A2982 RMK A01 T01031065  RH  030%=      5-min Rain = 0
KLE1 100515Z 27006KT 10/M06 A2982 RMK A01 T00991064  RH  031%=      5-min Rain = 0
KLE1 100516Z 27006KT 09/M06 A2982 RMK A01 T00941060  RH  033%=      5-min Rain = 0
KLE1 100517Z 27006KT 09/M06 A2982 RMK A01 T00901059  RH  034%=      5-min Rain = 0
KLE1 100518Z 28006KT 09/M06 A2982 RMK A01 T00871057  RH  036%=      5-min Rain = 0
KLE1 100519Z 28006KT 09/M06 A2982 RMK A01 T00851057  RH  036%=      5-min Rain = 0
KLE1 100520Z 27006KT 08/M06 A2982 RMK A01 T00831057  RH  037%=      5-min Rain = 0
KLE1 100521Z 27006KT 08/M06 A2982 RMK A01 T00821057  RH  037%=      5-min Rain = 0
KLE1 100522Z 26006KT 08/M06 A2982 RMK A01 T00801058  RH  037%=      5-min Rain = 0
KLE1 100523Z 26008KT 08/M06 A2982 RMK A01 T00791058  RH  037%=      5-min Rain = 0
KLE1 100524Z 26008KT 08/M06 A2982 RMK A01 T00791060  RH  037%=      5-min Rain = 0
KLE1 100525Z 27006KT 08/M06 A2982 RMK A01 T00791062  RH  036%=      5-min Rain = 0
KLE1 100526Z 28006KT 08/M06 A2982 RMK A01 T00791062  RH  036%=      5-min Rain = 0
KLE1 100527Z 28006KT 08/M06 A2982 RMK A01 T00781064  RH  036%=      5-min Rain = 0
KLE1 100528Z 28006KT 08/M07 A2981 RMK A01 T00781065  RH  035%=      5-min Rain = 0
KLE1 100529Z 28006KT 08/M07 A2981 RMK A01 T00781066  RH  035%=      5-min Rain = 0
KLE1 100530Z 28006KT 08/M07 A2981 RMK A01 T00781066  RH  035%=      5-min Rain = 0
KLE1 100531Z 27005KT 08/M07 A2981 RMK A01 T00781066  RH  035%=      5-min Rain = 0
KLE1 100532Z 28005KT 08/M07 A2981 RMK A01 T00791066  RH  035%=      5-min Rain = 0
KLE1 100533Z 29005KT 08/M07 A2981 RMK A01 T00801066  RH  035%=      5-min Rain = 0
KLE1 100534Z 28005KT 08/M07 A298 RMK A01 T00821065  RH  034%=      5-min Rain = 0
KLE1 100535Z 29004KT 08/M07 A298 RMK A01 T00841065  RH  034%=      5-min Rain = 0
KLE1 100536Z 28004KT 09/M07 A298 RMK A01 T00851065  RH  034%=      5-min Rain = 0
KLE1 100537Z 29004KT 09/M07 A2979 RMK A01 T00861065  RH  034%=      5-min Rain = 0
KLE1 100538Z 29003KT 09/M06 A2979 RMK A01 T00881064  RH  034%=      5-min Rain = 0
KLE1 100539Z 29003KT 09/M06 A2979 RMK A01 T00901063  RH  034%=      5-min Rain = 0
KLE1 100540Z 31003KT 09/M06 A2979 RMK A01 T00921062  RH  033%=      5-min Rain = 0
KLE1 100541Z 32001KT 10/M06 A2979 RMK A01 T00951061  RH  033%=      5-min Rain = 0
KLE1 100542Z 32002KT 10/M06 A2979 RMK A01 T00971060  RH  032%=      5-min Rain = 0
KLE1 100543Z 35002KT 10/M06 A2979 RMK A01 T00991059  RH  032%=      5-min Rain = 0
KLE1 100544Z 01002KT 10/M06 A2978 RMK A01 T01021055  RH  032%=      5-min Rain = 0
KLE1 100545Z 35001KT 11/M05 A2978 RMK A01 T01051053  RH  033%=      5-min Rain = 0
KLE1 100546Z 36001KT 11/M05 A2978 RMK A01 T01071053  RH  032%=      5-min Rain = 0
KLE1 100547Z 33001KT 11/M05 A2979 RMK A01 T01081053  RH  032%=      5-min Rain = 0
KLE1 100548Z 33001KT 11/M06 A2979 RMK A01 T01091055  RH  031%=      5-min Rain = 0
KLE1 100549Z 34001KT 11/M06 A2979 RMK A01 T01111056  RH  030%=      5-min Rain = 0
KLE1 100550Z 33001KT 11/M06 A2979 RMK A01 T01131056  RH  030%=      5-min Rain = 0
KLE1 100551Z 32001KT 11/M06 A2979 RMK A01 T01141057  RH  030%=      5-min Rain = 0
KLE1 100552Z 32001KT 12/M06 A2979 RMK A01 T01151057  RH  030%=      5-min Rain = 0
KLE1 100553Z 31001KT 12/M06 A2979 RMK A01 T01151057  RH  030%=      5-min Rain = 0
KLE1 100554Z 30001KT 12/M06 A2979 RMK A01 T01151057  RH  030%=      5-min Rain = 0
KLE1 100555Z 31001KT 11/M06 A2979 RMK A01 T01141057  RH  030%=      5-min Rain = 0
KLE1 100556Z 31002KT 11/M06 A2979 RMK A01 T01131057  RH  030%=      5-min Rain = 0
KLE1 100557Z 33002KT 11/M06 A2979 RMK A01 T01121057  RH  030%=      5-min Rain = 0
KLE1 100558Z 31001KT 11/M06 A2979 RMK A01 T01111057  RH  030%=      5-min Rain = 0
KLE1 100559Z 32002KT 11/M06 A2979 RMK A01 T01121056  RH  030%=      5-min Rain = 0

Page generated in 0.1383 seconds.